Wetterdaten: Sonntag, 13.01.2019
Datum Zeit Temp. Aussen Temp. o. S. +5cm Feuchte Auss Luftdruck Regen Sonnenschein Regendauer Solar Windben Empfang
13.01.2019 00:00 6,7 C 6,1 C 5,6 C 98 % 1010,9 hPa 0,0 l/m 0 min 0 min 0 W/m 16,1 km/h (3 Bft) 95,74 %
13.01.2019 00:02 6,7 C 6,1 C 5,6 C 98 % 1010,9 hPa 0,0 l/m 0 min 0 min 0 W/m 3,2 km/h (1 Bft) 10,00 %
13.01.2019 00:04 6,7 C 6,1 C 5,6 C 98 % 1010,9 hPa 0,0 l/m 0 min 0 min 0 W/m 12,9 km/h (3 Bft) 89,66 %
13.01.2019 00:07 6,7 C 6,1 C 5,6 C 98 % 1010,9 hPa 0,0 l/m 0 min 0 min 0 W/m 16,1 km/h (3 Bft) 97,14 %
13.01.2019 00:08 6,7 C 6,1 C 5,6 C 98 % 1010,9 hPa 0,0 l/m 0 min 0 min 0 W/m 9,7 km/h (2 Bft) 95,65 %
13.01.2019 00:10 6,7 C 6,1 C 5,6 C 98 % 1010,9 hPa 0,0 l/m 0 min 0 min 0 W/m 12,9 km/h (3 Bft) 97,87 %
13.01.2019 00:12 6,7 C 6,1 C 5,6 C 98 % 1011,0 hPa 0,0 l/m 0 min 0 min 0 W/m 9,7 km/h (2 Bft) 97,87 %
13.01.2019 00:14 6,7 C 6,1 C 5,6 C 98 % 1010,9 hPa 0,0 l/m 0 min 0 min 0 W/m 16,1 km/h (3 Bft) 97,87 %
13.01.2019 00:16 6,7 C 6,1 C 5,6 C 98 % 1010,9 hPa 0,0 l/m 0 min 0 min 0 W/m 9,7 km/h (2 Bft) 95,74 %
13.01.2019 00:18 6,7 C 6,1 C 5,6 C 98 % 1010,9 hPa 0,0 l/m 0 min 0 min 0 W/m 9,7 km/h (2 Bft) 97,87 %
13.01.2019 00:20 6,7 C 6,1 C 5,6 C 98 % 1010,9 hPa 0,0 l/m 0 min 0 min 0 W/m 12,9 km/h (3 Bft) 97,83 %
13.01.2019 00:22 6,7 C 6,1 C 5,6 C 98 % 1010,9 hPa 0,0 l/m 0 min 0 min 0 W/m 16,1 km/h (3 Bft) 95,74 %
13.01.2019 00:24 6,7 C 6,1 C 5,6 C 98 % 1010,9 hPa 0,0 l/m 0 min 0 min 0 W/m 9,7 km/h (2 Bft) 97,87 %
13.01.2019 00:26 6,7 C 6,1 C 5,6 C 98 % 1010,8 hPa 0,0 l/m 0 min 0 min 0 W/m 9,7 km/h (2 Bft) 97,87 %
13.01.2019 00:28 6,7 C 6,1 C 5,6 C 98 % 1010,7 hPa 0,0 l/m 0 min 0 min 0 W/m 16,1 km/h (3 Bft) 95,74 %
13.01.2019 00:30 6,7 C 6,1 C 5,6 C 98 % 1010,8 hPa 0,0 l/m 0 min 0 min 0 W/m 16,1 km/h (3 Bft) 97,87 %
13.01.2019 00:32 6,8 C 6,1 C 5,6 C 98 % 1010,8 hPa 0,0 l/m 0 min 0 min 0 W/m 12,9 km/h (3 Bft) 97,83 %
13.01.2019 00:34 6,8 C 6,1 C 5,6 C 98 % 1010,8 hPa 0,0 l/m 0 min 0 min 0 W/m 16,1 km/h (3 Bft) 97,87 %
13.01.2019 00:36 6,8 C 6,1 C 5,6 C 98 % 1010,7 hPa 0,0 l/m 0 min 0 min 0 W/m 12,9 km/h (3 Bft) 97,87 %
13.01.2019 00:38 6,8 C 6,1 C 5,6 C 98 % 1010,7 hPa 0,0 l/m 0 min 0 min 0 W/m 9,7 km/h (2 Bft) 97,87 %
13.01.2019 00:40 6,8 C 6,1 C 5,6 C 98 % 1010,8 hPa 0,0 l/m 0 min 0 min 0 W/m 16,1 km/h (3 Bft) 97,87 %
13.01.2019 00:42 6,8 C 6,1 C 5,6 C 98 % 1010,8 hPa 0,0 l/m 0 min 0 min 0 W/m 12,9 km/h (3 Bft) 97,83 %
13.01.2019 00:44 6,8 C 6,1 C 5,6 C 98 % 1010,7 hPa 0,0 l/m 0 min 0 min 0 W/m 12,9 km/h (3 Bft) 95,74 %
13.01.2019 00:46 6,8 C 6,1 C 5,6 C 98 % 1010,7 hPa 0,0 l/m 0 min 0 min 0 W/m 12,9 km/h (3 Bft) 97,87 %
13.01.2019 00:48 6,8 C 6,1 C 5,6 C 98 % 1010,8 hPa 0,0 l/m 0 min 0 min 0 W/m 12,9 km/h (3 Bft) 97,87 %
13.01.2019 00:50 6,8 C 6,1 C 5,6 C 98 % 1010,8 hPa 0,0 l/m 0 min 0 min 0 W/m 12,9 km/h (3 Bft) 97,87 %
13.01.2019 00:52 6,8 C 6,1 C 5,6 C 98 % 1010,8 hPa 0,0 l/m 0 min 0 min 0 W/m 12,9 km/h (3 Bft) 97,87 %
13.01.2019 00:54 6,8 C 6,1 C 5,6 C 98 % 1010,7 hPa 0,0 l/m 0 min 0 min 0 W/m 6,4 km/h (2 Bft) 95,65 %
13.01.2019 00:56 6,8 C 6,1 C 5,6 C 98 % 1010,8 hPa 0,0 l/m 0 min 0 min 0 W/m 16,1 km/h (3 Bft) 100,00 %
13.01.2019 00:58 6,8 C 6,1 C 5,6 C 98 % 1010,8 hPa 0,0 l/m 0 min 0 min 0 W/m 16,1 km/h (3 Bft) 100,00 %
13.01.2019 01:00 6,8 C 6,1 C 5,6 C 98 % 1010,7 hPa 0,0 l/m 0 min 0 min 0 W/m 12,9 km/h (3 Bft) 100,00 %
13.01.2019 01:02 6,8 C 6,1 C 5,6 C 98 % 1010,7 hPa 0,0 l/m 0 min 0 min 0 W/m 16,1 km/h (3 Bft) 100,00 %
13.01.2019 01:04 6,8 C 6,1 C 5,6 C 98 % 1010,7 hPa 0,0 l/m 0 min 0 min 0 W/m 12,9 km/h (3 Bft) 100,00 %
13.01.2019 01:06 6,8 C 6,1 C 5,6 C 98 % 1010,7 hPa 0,0 l/m 0 min 0 min 0 W/m 12,9 km/h (3 Bft) 97,83 %
13.01.2019 01:08 6,8 C 6,1 C 5,6 C 98 % 1010,6 hPa 0,0 l/m 0 min 0 min 0 W/m 12,9 km/h (3 Bft) 100,00 %
13.01.2019 01:10 6,8 C 6,1 C 5,6 C 98 % 1010,8 hPa 0,0 l/m 0 min 0 min 0 W/m 9,7 km/h (2 Bft) 100,00 %
13.01.2019 01:12 6,8 C 6,1 C 5,6 C 98 % 1010,8 hPa 0,0 l/m 0 min 0 min 0 W/m 12,9 km/h (3 Bft) 97,87 %
13.01.2019 01:14 6,8 C 6,1 C 5,6 C 98 % 1010,7 hPa 0,0 l/m 0 min 0 min 0 W/m 12,9 km/h (3 Bft) 100,00 %
13.01.2019 01:16 6,8 C 6,1 C 5,6 C 98 % 1010,6 hPa 0,0 l/m 0 min 0 min 0 W/m 9,7 km/h (2 Bft) 100,00 %
13.01.2019 01:18 6,9 C 6,1 C 5,6 C 98 % 1010,6 hPa 0,0 l/m 0 min 0 min 0 W/m 16,1 km/h (3 Bft) 100,00 %
13.01.2019 01:20 6,9 C 6,1 C 5,6 C 98 % 1010,5 hPa 0,0 l/m 0 min 0 min 0 W/m 9,7 km/h (2 Bft) 100,00 %
13.01.2019 01:22 6,9 C 6,1 C 5,6 C 98 % 1010,6 hPa 0,0 l/m 0 min 0 min 0 W/m 6,4 km/h (2 Bft) 100,00 %
13.01.2019 01:24 6,9 C 6,1 C 5,6 C 98 % 1010,5 hPa 0,0 l/m 0 min 0 min 0 W/m 12,9 km/h (3 Bft) 97,87 %
13.01.2019 01:26 6,9 C 6,1 C 5,6 C 98 % 1010,5 hPa 0,0 l/m 0 min 0 min 0 W/m 16,1 km/h (3 Bft) 97,87 %
13.01.2019 01:28 6,9 C 6,1 C 5,6 C 98 % 1010,7 hPa 0,0 l/m 0 min 0 min 0 W/m 19,3 km/h (3 Bft) 100,00 %
13.01.2019 01:30 6,9 C 6,1 C 5,6 C 98 % 1010,6 hPa 0,0 l/m 0 min 0 min 0 W/m 12,9 km/h (3 Bft) 100,00 %
13.01.2019 01:32 6,9 C 6,1 C 5,6 C 98 % 1010,7 hPa 0,0 l/m 0 min 0 min 0 W/m 9,7 km/h (2 Bft) 100,00 %
13.01.2019 01:34 6,9 C 6,1 C 5,6 C 98 % 1010,7 hPa 0,0 l/m 0 min 0 min 0 W/m 16,1 km/h (3 Bft) 100,00 %
13.01.2019 01:36 6,9 C 6,1 C 5,6 C 98 % 1010,8 hPa 0,0 l/m 0 min 0 min 0 W/m 19,3 km/h (3 Bft) 100,00 %
13.01.2019 01:38 6,9 C 6,1 C 5,6 C 98 % 1010,6 hPa 0,0 l/m 0 min 0 min 0 W/m 9,7 km/h (2 Bft) 100,00 %
13.01.2019 01:40 6,9 C 6,1 C 5,6 C 98 % 1010,7 hPa 0,0 l/m 0 min 0 min 0 W/m 12,9 km/h (3 Bft) 100,00 %
13.01.2019 01:42 6,9 C 6,7 C 5,6 C 98 % 1010,7 hPa 0,0 l/m 0 min 0 min 0 W/m 12,9 km/h (3 Bft) 100,00 %
13.01.2019 01:44 6,9 C 6,7 C 5,6 C 98 % 1010,7 hPa 0,0 l/m 0 min 0 min 0 W/m 16,1 km/h (3 Bft) 100,00 %
13.01.2019 01:46 6,9 C 6,7 C 5,6 C 98 % 1010,6 hPa 0,0 l/m 0 min 0 min 0 W/m 16,1 km/h (3 Bft) 100,00 %
13.01.2019 01:48 6,9 C 6,7 C 5,6 C 98 % 1010,6 hPa 0,0 l/m 0 min 0 min 0 W/m 9,7 km/h (2 Bft) 100,00 %
13.01.2019 01:50 6,9 C 6,7 C 5,6 C 98 % 1010,6 hPa 0,0 l/m 0 min 0 min 0 W/m 9,7 km/h (2 Bft) 97,87 %
13.01.2019 01:52 6,9 C 6,7 C 5,6 C 98 % 1010,5 hPa 0,0 l/m 0 min 0 min 0 W/m 19,3 km/h (3 Bft) 97,83 %
13.01.2019 01:54 6,9 C 6,7 C 5,6 C 98 % 1010,5 hPa 0,0 l/m 0 min 0 min 0 W/m 16,1 km/h (3 Bft) 97,87 %
13.01.2019 01:56 6,9 C 6,1 C 5,6 C 98 % 1010,5 hPa 0,0 l/m 0 min 0 min 0 W/m 9,7 km/h (2 Bft) 95,74 %
13.01.2019 01:58 6,9 C 6,7 C 5,6 C 98 % 1010,5 hPa 0,0 l/m 0 min 0 min 0 W/m 12,9 km/h (3 Bft) 95,74 %
13.01.2019 02:00 6,9 C 6,7 C 5,6 C 97 % 1010,5 hPa 0,0 l/m 0 min 0 min 0 W/m 19,3 km/h (3 Bft) 97,87 %
13.01.2019 02:02 6,9 C 6,7 C 5,6 C 97 % 1010,6 hPa 0,0 l/m 0 min 0 min 0 W/m 9,7 km/h (2 Bft) 97,87 %
13.01.2019 02:04 6,9 C 6,7 C 5,6 C 97 % 1010,5 hPa 0,0 l/m 0 min 0 min 0 W/m 16,1 km/h (3 Bft) 97,83 %
13.01.2019 02:06 6,9 C 6,7 C 5,6 C 97 % 1010,4 hPa 0,0 l/m 0 min 0 min 0 W/m 9,7 km/h (2 Bft) 97,87 %
13.01.2019 02:08 6,9 C 6,7 C 5,6 C 97 % 1010,3 hPa 0,0 l/m 0 min 0 min 0 W/m 9,7 km/h (2 Bft) 95,74 %
13.01.2019 02:10 6,9 C 6,7 C 5,6 C 97 % 1010,3 hPa 0,0 l/m 0 min 0 min 0 W/m 12,9 km/h (3 Bft) 97,87 %
13.01.2019 02:12 6,9 C 6,7 C 5,6 C 97 % 1010,3 hPa 0,0 l/m 0 min 0 min 0 W/m 12,9 km/h (3 Bft) 97,87 %
13.01.2019 02:14 6,9 C 6,7 C 5,6 C 97 % 1010,2 hPa 0,0 l/m 0 min 0 min 0 W/m 9,7 km/h (2 Bft) 95,74 %
13.01.2019 02:16 6,9 C 6,7 C 5,6 C 97 % 1010,3 hPa 0,0 l/m 0 min 0 min 0 W/m 19,3 km/h (3 Bft) 97,83 %
13.01.2019 02:18 6,9 C 6,7 C 5,6 C 97 % 1010,2 hPa 0,0 l/m 0 min 0 min 0 W/m 12,9 km/h (3 Bft) 97,87 %
13.01.2019 02:20 6,9 C 6,7 C 5,6 C 97 % 1010,2 hPa 0,0 l/m 0 min 0 min 0 W/m 16,1 km/h (3 Bft) 97,87 %
13.01.2019 02:22 6,9 C 6,7 C 5,6 C 97 % 1010,2 hPa 0,0 l/m 0 min 0 min 0 W/m 9,7 km/h (2 Bft) 95,74 %
13.01.2019 02:24 6,9 C 6,7 C 5,6 C 97 % 1010,2 hPa 0,0 l/m 0 min 0 min 0 W/m 12,9 km/h (3 Bft) 95,74 %
13.01.2019 02:26 6,9 C 6,7 C 5,6 C 97 % 1010,2 hPa 0,0 l/m 0 min 0 min 0 W/m 12,9 km/h (3 Bft) 95,74 %
13.01.2019 02:28 6,9 C 6,7 C 5,6 C 97 % 1010,3 hPa 0,0 l/m 0 min 0 min 0 W/m 9,7 km/h (2 Bft) 95,65 %
13.01.2019 02:30 7,0 C 6,7 C 5,6 C 97 % 1010,2 hPa 0,0 l/m 0 min 0 min 0 W/m 22,5 km/h (4 Bft) 93,62 %
13.01.2019 02:32 7,0 C 6,7 C 5,6 C 97 % 1010,3 hPa 0,0 l/m 0 min 0 min 0 W/m 16,1 km/h (3 Bft) 97,87 %
13.01.2019 02:34 7,0 C 6,7 C 5,6 C 97 % 1010,4 hPa 0,0 l/m 0 min 0 min 0 W/m 9,7 km/h (2 Bft) 95,74 %
13.01.2019 02:36 7,0 C 6,7 C 5,6 C 97 % 1010,4 hPa 0,0 l/m 0 min 0 min 0 W/m 9,7 km/h (2 Bft) 95,74 %
13.01.2019 02:38 7,0 C 6,7 C 5,6 C 97 % 1010,4 hPa 0,0 l/m 0 min 0 min 0 W/m 12,9 km/h (3 Bft) 95,74 %
13.01.2019 02:40 7,0 C 6,7 C 5,6 C 97 % 1010,3 hPa 0,0 l/m 0 min 0 min 0 W/m 16,1 km/h (3 Bft) 97,87 %
13.01.2019 02:42 7,0 C 6,7 C 5,6 C 97 % 1010,2 hPa 0,0 l/m 0 min 0 min 0 W/m 9,7 km/h (2 Bft) 93,62 %
13.01.2019 02:44 7,0 C 6,7 C 5,6 C 97 % 1010,1 hPa 0,0 l/m 0 min 0 min 0 W/m 9,7 km/h (2 Bft) 97,87 %
13.01.2019 02:46 7,0 C 6,7 C 5,6 C 97 % 1010,1 hPa 0,0 l/m 0 min 0 min 0 W/m 16,1 km/h (3 Bft) 97,87 %
13.01.2019 02:48 7,0 C 6,7 C 5,6 C 97 % 1010,1 hPa 0,0 l/m 0 min 0 min 0 W/m 6,4 km/h (2 Bft) 95,74 %
13.01.2019 02:50 7,0 C 6,7 C 5,6 C 97 % 1010,1 hPa 0,0 l/m 0 min 0 min 0 W/m 6,4 km/h (2 Bft) 93,48 %
13.01.2019 02:52 7,0 C 6,7 C 5,6 C 97 % 1010,1 hPa 0,0 l/m 0 min 0 min 0 W/m 9,7 km/h (2 Bft) 95,74 %
13.01.2019 02:54 7,0 C 6,7 C 5,6 C 97 % 1010,0 hPa 0,0 l/m 0 min 0 min 0 W/m 6,4 km/h (2 Bft) 97,87 %
13.01.2019 02:56 7,0 C 6,7 C 5,6 C 97 % 1010,0 hPa 0,0 l/m 0 min 0 min 0 W/m 9,7 km/h (2 Bft) 97,87 %
13.01.2019 02:58 7,0 C 6,7 C 5,6 C 97 % 1010,0 hPa 0,0 l/m 0 min 0 min 0 W/m 16,1 km/h (3 Bft) 97,87 %
13.01.2019 03:00 7,0 C 6,7 C 5,6 C 97 % 1009,9 hPa 0,0 l/m 0 min 0 min 0 W/m 16,1 km/h (3 Bft) 95,74 %
13.01.2019 03:02 7,0 C 6,7 C 5,6 C 97 % 1009,9 hPa 0,0 l/m 0 min 0 min 0 W/m 12,9 km/h (3 Bft) 95,65 %
13.01.2019 03:04 7,0 C 6,7 C 5,6 C 97 % 1009,9 hPa 0,0 l/m 0 min 0 min 0 W/m 6,4 km/h (2 Bft) 95,74 %
13.01.2019 03:06 7,0 C 6,7 C 5,6 C 97 % 1009,8 hPa 0,0 l/m 0 min 0 min 0 W/m 9,7 km/h (2 Bft) 97,87 %
13.01.2019 03:08 7,0 C 6,7 C 5,6 C 97 % 1009,8 hPa 0,0 l/m 0 min 0 min 0 W/m 9,7 km/h (2 Bft) 93,62 %
13.01.2019 03:10 7,0 C 6,7 C 5,6 C 97 % 1009,8 hPa 0,0 l/m 0 min 0 min 0 W/m 16,1 km/h (3 Bft) 95,74 %
13.01.2019 03:12 7,0 C 6,7 C 5,6 C 97 % 1009,7 hPa 0,0 l/m 0 min 0 min 0 W/m 9,7 km/h (2 Bft) 95,74 %
13.01.2019 03:14 7,1 C 6,7 C 5,6 C 97 % 1009,7 hPa 0,0 l/m 0 min 0 min 0 W/m 6,4 km/h (2 Bft) 93,48 %
13.01.2019 03:16 7,1 C 6,7 C 5,6 C 97 % 1009,5 hPa 0,0 l/m 0 min 0 min 0 W/m 9,7 km/h (2 Bft) 97,87 %
13.01.2019 03:18 7,1 C 6,1 C 5,6 C 97 % 1009,5 hPa 0,0 l/m 0 min 0 min 0 W/m 6,4 km/h (2 Bft) 97,87 %
13.01.2019 03:20 7,1 C 6,1 C 5,6 C 97 % 1009,4 hPa 0,0 l/m 0 min 0 min 0 W/m 9,7 km/h (2 Bft) 95,74 %
13.01.2019 03:22 7,1 C 6,1 C 5,6 C 97 % 1009,4 hPa 0,0 l/m 0 min 0 min 0 W/m 9,7 km/h (2 Bft) 95,74 %
13.01.2019 03:24 7,1 C 6,1 C 5,6 C 97 % 1009,4 hPa 0,0 l/m 0 min 0 min 0 W/m 12,9 km/h (3 Bft) 97,87 %
13.01.2019 03:26 7,1 C 6,1 C 5,6 C 97 % 1009,4 hPa 0,0 l/m 0 min 0 min 0 W/m 9,7 km/h (2 Bft) 97,83 %
13.01.2019 03:28 7,1 C 6,1 C 5,6 C 97 % 1009,4 hPa 0,0 l/m 0 min 0 min 0 W/m 9,7 km/h (2 Bft) 97,87 %
13.01.2019 03:30 7,0 C 6,1 C 5,6 C 97 % 1009,4 hPa 0,0 l/m 0 min 0 min 0 W/m 19,3 km/h (3 Bft) 95,74 %
13.01.2019 03:32 7,1 C 6,1 C 5,6 C 97 % 1009,4 hPa 0,0 l/m 0 min 0 min 0 W/m 9,7 km/h (2 Bft) 97,87 %
13.01.2019 03:34 7,1 C 6,1 C 5,6 C 97 % 1009,4 hPa 0,0 l/m 0 min 0 min 0 W/m 9,7 km/h (2 Bft) 97,87 %
13.01.2019 03:36 7,0 C 6,1 C 5,6 C 97 % 1009,3 hPa 0,0 l/m 0 min 0 min 0 W/m 9,7 km/h (2 Bft) 97,87 %
13.01.2019 03:38 7,0 C 6,1 C 5,6 C 97 % 1009,4 hPa 0,0 l/m 0 min 0 min 0 W/m 12,9 km/h (3 Bft) 97,83 %
13.01.2019 03:40 7,0 C 6,1 C 5,6 C 97 % 1009,4 hPa 0,0 l/m 0 min 0 min 0 W/m 9,7 km/h (2 Bft) 97,87 %
13.01.2019 03:42 7,0 C 6,1 C 5,6 C 97 % 1009,3 hPa 0,0 l/m 0 min 0 min 0 W/m 6,4 km/h (2 Bft) 97,87 %
13.01.2019 03:44 7,0 C 6,1 C 5,6 C 97 % 1009,3 hPa 0,0 l/m 0 min 0 min 0 W/m 12,9 km/h (3 Bft) 95,74 %
13.01.2019 03:46 7,0 C 6,1 C 5,6 C 97 % 1009,4 hPa 0,0 l/m 0 min 2 min 0 W/m 9,7 km/h (2 Bft) 93,62 %
13.01.2019 03:48 7,0 C 6,1 C 5,6 C 97 % 1009,3 hPa 0,0 l/m 0 min 0 min 0 W/m 9,7 km/h (2 Bft) 97,87 %
13.01.2019 03:50 7,0 C 6,1 C 5,6 C 97 % 1009,4 hPa 0,0 l/m 0 min 0 min 0 W/m 9,7 km/h (2 Bft) 97,83 %
13.01.2019 03:52 6,9 C 6,1 C 5,6 C 97 % 1009,4 hPa 0,0 l/m 0 min 0 min 0 W/m 16,1 km/h (3 Bft) 100,00 %
13.01.2019 03:54 6,9 C 6,1 C 5,6 C 97 % 1009,4 hPa 0,0 l/m 0 min 2 min 0 W/m 9,7 km/h (2 Bft) 100,00 %
13.01.2019 03:56 7,0 C 6,1 C 5,6 C 97 % 1009,5 hPa 0,0 l/m 0 min 2 min 0 W/m 9,7 km/h (2 Bft) 100,00 %
13.01.2019 03:58 7,0 C 6,1 C 5,6 C 97 % 1009,4 hPa 0,0 l/m 0 min 0 min 0 W/m 12,9 km/h (3 Bft) 97,87 %
13.01.2019 04:00 7,0 C 6,1 C 5,6 C 97 % 1009,4 hPa 0,0 l/m 0 min 2 min 0 W/m 16,1 km/h (3 Bft) 100,00 %
13.01.2019 04:02 7,0 C 6,1 C 5,6 C 97 % 1009,5 hPa 0,0 l/m 0 min 2 min 0 W/m 9,7 km/h (2 Bft) 100,00 %
13.01.2019 04:04 7,0 C 6,1 C 5,6 C 97 % 1009,5 hPa 0,0 l/m 0 min 2 min 0 W/m 16,1 km/h (3 Bft) 93,62 %
13.01.2019 04:06 7,0 C 6,1 C 5,6 C 97 % 1009,5 hPa 0,0 l/m 0 min 2 min 0 W/m 12,9 km/h (3 Bft) 100,00 %
13.01.2019 04:08 7,0 C 6,1 C 5,6 C 97 % 1009,5 hPa 0,0 l/m 0 min 2 min 0 W/m 19,3 km/h (3 Bft) 100,00 %
13.01.2019 04:10 7,0 C 6,1 C 5,6 C 97 % 1009,5 hPa 0,0 l/m 0 min 2 min 0 W/m 9,7 km/h (2 Bft) 100,00 %
13.01.2019 04:12 7,0 C 6,1 C 5,6 C 98 % 1009,5 hPa 0,0 l/m 0 min 2 min 0 W/m 9,7 km/h (2 Bft) 100,00 %
13.01.2019 04:14 7,0 C 6,1 C 5,6 C 98 % 1009,5 hPa 0,0 l/m 0 min 2 min 0 W/m 9,7 km/h (2 Bft) 100,00 %
13.01.2019 04:16 7,0 C 6,1 C 5,6 C 98 % 1009,5 hPa 0,0 l/m 0 min 2 min 0 W/m 9,7 km/h (2 Bft) 100,00 %
13.01.2019 04:18 7,0 C 6,1 C 5,6 C 98 % 1009,5 hPa 0,0 l/m 0 min 0 min 0 W/m 9,7 km/h (2 Bft) 97,87 %
13.01.2019 04:20 7,0 C 6,1 C 5,6 C 98 % 1009,5 hPa 0,0 l/m 0 min 0 min 0 W/m 6,4 km/h (2 Bft) 95,74 %
13.01.2019 04:22 7,0 C 6,1 C 5,6 C 98 % 1009,5 hPa 0,0 l/m 0 min 2 min 0 W/m 16,1 km/h (3 Bft) 97,87 %
13.01.2019 04:24 7,0 C 6,1 C 5,6 C 98 % 1009,4 hPa 0,0 l/m 0 min 2 min 0 W/m 9,7 km/h (2 Bft) 97,83 %
13.01.2019 04:26 7,0 C 6,1 C 5,6 C 98 % 1009,3 hPa 0,2 l/m 0 min 2 min 0 W/m 12,9 km/h (3 Bft) 97,87 %
13.01.2019 04:28 7,0 C 6,1 C 5,6 C 98 % 1009,4 hPa 0,0 l/m 0 min 2 min 0 W/m 9,7 km/h (2 Bft) 95,74 %
13.01.2019 04:30 7,1 C 6,1 C 5,6 C 98 % 1009,3 hPa 0,0 l/m 0 min 2 min 0 W/m 9,7 km/h (2 Bft) 95,74 %
13.01.2019 04:32 7,1 C 6,1 C 5,6 C 98 % 1009,3 hPa 0,0 l/m 0 min 2 min 0 W/m 16,1 km/h (3 Bft) 95,74 %
13.01.2019 04:34 7,1 C 6,1 C 5,6 C 98 % 1009,3 hPa 0,0 l/m 0 min 0 min 0 W/m 22,5 km/h (4 Bft) 95,74 %
13.01.2019 04:36 7,1 C 6,1 C 5,6 C 98 % 1009,1 hPa 0,0 l/m 0 min 0 min 0 W/m 9,7 km/h (2 Bft) 97,83 %
13.01.2019 04:38 7,1 C 6,1 C 5,6 C 98 % 1009,2 hPa 0,0 l/m 0 min 0 min 0 W/m 16,1 km/h (3 Bft) 97,87 %
13.01.2019 04:40 7,1 C 6,1 C 5,6 C 98 % 1009,1 hPa 0,0 l/m 0 min 0 min 0 W/m 12,9 km/h (3 Bft) 97,87 %
13.01.2019 04:42 7,1 C 6,1 C 5,6 C 98 % 1009,0 hPa 0,0 l/m 0 min 0 min 0 W/m 9,7 km/h (2 Bft) 97,87 %
13.01.2019 04:44 7,1 C 6,1 C 5,6 C 98 % 1008,9 hPa 0,0 l/m 0 min 0 min 0 W/m 19,3 km/h (3 Bft) 95,74 %
13.01.2019 04:46 7,1 C 6,1 C 5,6 C 98 % 1008,9 hPa 0,0 l/m 0 min 0 min 0 W/m 9,7 km/h (2 Bft) 97,87 %
13.01.2019 04:48 7,1 C 6,1 C 5,6 C 98 % 1008,9 hPa 0,0 l/m 0 min 0 min 0 W/m 12,9 km/h (3 Bft) 97,83 %
13.01.2019 04:50 7,1 C 6,1 C 5,6 C 98 % 1008,8 hPa 0,0 l/m 0 min 0 min 0 W/m 12,9 km/h (3 Bft) 95,74 %
13.01.2019 04:52 7,1 C 6,1 C 5,6 C 98 % 1008,8 hPa 0,0 l/m 0 min 0 min 0 W/m 19,3 km/h (3 Bft) 97,87 %
13.01.2019 04:54 7,1 C 6,1 C 5,6 C 98 % 1008,8 hPa 0,0 l/m 0 min 0 min 0 W/m 9,7 km/h (2 Bft) 97,87 %
13.01.2019 04:56 7,1 C 6,1 C 5,6 C 98 % 1008,7 hPa 0,0 l/m 0 min 0 min 0 W/m 9,7 km/h (2 Bft) 97,87 %
13.01.2019 04:58 7,1 C 6,1 C 5,6 C 98 % 1008,7 hPa 0,0 l/m 0 min 0 min 0 W/m 9,7 km/h (2 Bft) 97,87 %
13.01.2019 05:00 7,1 C 6,1 C 5,6 C 98 % 1008,7 hPa 0,0 l/m 0 min 0 min 0 W/m 16,1 km/h (3 Bft) 100,00 %
13.01.2019 05:02 7,1 C 6,1 C 5,6 C 98 % 1008,7 hPa 0,0 l/m 0 min 0 min 0 W/m 9,7 km/h (2 Bft) 100,00 %
13.01.2019 05:04 7,1 C 6,1 C 5,6 C 98 % 1008,6 hPa 0,0 l/m 0 min 0 min 0 W/m 16,1 km/h (3 Bft) 100,00 %
13.01.2019 05:06 7,1 C 6,1 C 5,6 C 98 % 1008,6 hPa 0,0 l/m 0 min 0 min 0 W/m 16,1 km/h (3 Bft) 100,00 %
13.01.2019 05:08 7,1 C 6,1 C 5,6 C 98 % 1008,7 hPa 0,0 l/m 0 min 0 min 0 W/m 19,3 km/h (3 Bft) 100,00 %
13.01.2019 05:10 7,1 C 6,1 C 5,6 C 98 % 1008,6 hPa 0,0 l/m 0 min 2 min 0 W/m 22,5 km/h (4 Bft) 100,00 %
13.01.2019 05:12 7,1 C 6,1 C 5,6 C 98 % 1008,5 hPa 0,0 l/m 0 min 0 min 0 W/m 22,5 km/h (4 Bft) 100,00 %
13.01.2019 05:14 7,1 C 6,1 C 5,6 C 98 % 1008,5 hPa 0,0 l/m 0 min 0 min 0 W/m 9,7 km/h (2 Bft) 100,00 %
13.01.2019 05:19 7,1 C 6,1 C 5,6 C 98 % 1008,2 hPa 0,0 l/m 0 min 5 min 0 W/m 19,3 km/h (3 Bft) 95,08 %
13.01.2019 05:20 7,0 C 6,1 C 5,6 C 98 % 1008,2 hPa 0,0 l/m 0 min 1 min 0 W/m 16,1 km/h (3 Bft) 100,00 %
13.01.2019 05:22 7,0 C 6,1 C 5,6 C 98 % 1008,1 hPa 0,0 l/m 0 min 2 min 0 W/m 19,3 km/h (3 Bft) 100,00 %
13.01.2019 05:24 7,0 C 6,1 C 5,6 C 98 % 1008,1 hPa 0,0 l/m 0 min 0 min 0 W/m 12,9 km/h (3 Bft) 97,87 %
13.01.2019 05:26 7,0 C 6,1 C 5,6 C 98 % 1008,1 hPa 0,0 l/m 0 min 2 min 0 W/m 19,3 km/h (3 Bft) 100,00 %
13.01.2019 05:28 7,0 C 6,1 C 5,6 C 98 % 1008,0 hPa 0,0 l/m 0 min 0 min 0 W/m 12,9 km/h (3 Bft) 97,87 %
13.01.2019 05:30 7,0 C 6,1 C 5,6 C 98 % 1007,9 hPa 0,0 l/m 0 min 0 min 0 W/m 16,1 km/h (3 Bft) 95,65 %
13.01.2019 05:32 7,0 C 6,1 C 5,6 C 98 % 1007,8 hPa 0,0 l/m 0 min 0 min 0 W/m 9,7 km/h (2 Bft) 97,87 %
13.01.2019 05:34 7,0 C 6,1 C 5,6 C 98 % 1007,9 hPa 0,0 l/m 0 min 0 min 0 W/m 22,5 km/h (4 Bft) 97,87 %
13.01.2019 05:36 7,0 C 6,1 C 5,6 C 98 % 1008,0 hPa 0,0 l/m 0 min 0 min 0 W/m 9,7 km/h (2 Bft) 97,87 %
13.01.2019 05:38 7,0 C 6,1 C 5,6 C 98 % 1007,9 hPa 0,0 l/m 0 min 0 min 0 W/m 6,4 km/h (2 Bft) 97,87 %
13.01.2019 05:40 7,0 C 6,1 C 5,6 C 98 % 1007,9 hPa 0,0 l/m 0 min 0 min 0 W/m 16,1 km/h (3 Bft) 97,87 %
13.01.2019 05:42 7,0 C 6,1 C 5,6 C 98 % 1007,8 hPa 0,0 l/m 0 min 0 min 0 W/m 12,9 km/h (3 Bft) 95,65 %
13.01.2019 05:44 7,0 C 6,1 C 5,6 C 98 % 1007,8 hPa 0,0 l/m 0 min 2 min 0 W/m 19,3 km/h (3 Bft) 97,87 %
13.01.2019 05:46 7,0 C 6,1 C 5,6 C 98 % 1007,7 hPa 0,0 l/m 0 min 0 min 0 W/m 9,7 km/h (2 Bft) 95,74 %
13.01.2019 05:48 7,0 C 6,1 C 5,6 C 98 % 1007,6 hPa 0,0 l/m 0 min 2 min 0 W/m 32,2 km/h (5 Bft) 95,74 %
13.01.2019 05:50 7,1 C 6,1 C 5,6 C 98 % 1007,6 hPa 0,0 l/m 0 min 2 min 0 W/m 22,5 km/h (4 Bft) 97,87 %
13.01.2019 05:52 7,1 C 6,1 C 5,6 C 98 % 1007,5 hPa 0,0 l/m 0 min 2 min 0 W/m 9,7 km/h (2 Bft) 97,87 %
13.01.2019 05:54 7,1 C 6,1 C 5,6 C 98 % 1007,5 hPa 0,0 l/m 0 min 2 min 0 W/m 9,7 km/h (2 Bft) 93,48 %
13.01.2019 05:56 7,1 C 6,1 C 5,6 C 98 % 1007,5 hPa 0,0 l/m 0 min 2 min 0 W/m 12,9 km/h (3 Bft) 95,74 %
13.01.2019 05:58 7,1 C 6,1 C 5,6 C 98 % 1007,4 hPa 0,0 l/m 0 min 2 min 0 W/m 16,1 km/h (3 Bft) 95,74 %
13.01.2019 06:00 7,1 C 6,1 C 5,6 C 98 % 1007,4 hPa 0,0 l/m 0 min 2 min 0 W/m 9,7 km/h (2 Bft) 93,62 %
13.01.2019 06:02 7,1 C 6,1 C 5,6 C 98 % 1007,3 hPa 0,0 l/m 0 min 0 min 0 W/m 16,1 km/h (3 Bft) 97,87 %
13.01.2019 06:04 7,1 C 6,1 C 5,6 C 98 % 1007,4 hPa 0,0 l/m 0 min 0 min 0 W/m 16,1 km/h (3 Bft) 95,74 %
13.01.2019 06:08 7,1 C 6,1 C 5,6 C 98 % 1007,2 hPa 0,0 l/m 0 min 0 min 0 W/m 25,7 km/h (4 Bft) 95,70 %
13.01.2019 06:10 7,1 C 6,1 C 5,6 C 98 % 1007,2 hPa 0,0 l/m 0 min 2 min 0 W/m 29,0 km/h (5 Bft) 95,74 %
13.01.2019 06:12 7,1 C 6,1 C 5,6 C 98 % 1007,3 hPa 0,0 l/m 0 min 0 min 0 W/m 25,7 km/h (4 Bft) 95,74 %
13.01.2019 06:14 7,1 C 6,1 C 5,6 C 98 % 1007,2 hPa 0,0 l/m 0 min 0 min 0 W/m 6,4 km/h (2 Bft) 95,74 %
13.01.2019 06:16 7,1 C 6,1 C 5,6 C 98 % 1007,2 hPa 0,0 l/m 0 min 0 min 0 W/m 16,1 km/h (3 Bft) 93,62 %
13.01.2019 06:18 7,1 C 6,1 C 5,6 C 98 % 1007,2 hPa 0,0 l/m 0 min 2 min 0 W/m 12,9 km/h (3 Bft) 95,65 %
13.01.2019 06:20 7,1 C 6,1 C 5,6 C 98 % 1007,1 hPa 0,0 l/m 0 min 2 min 0 W/m 16,1 km/h (3 Bft) 97,87 %
13.01.2019 06:22 7,1 C 6,1 C 5,6 C 98 % 1007,0 hPa 0,0 l/m 0 min 0 min 0 W/m 12,9 km/h (3 Bft) 97,87 %
13.01.2019 06:24 7,1 C 6,1 C 5,6 C 98 % 1006,9 hPa 0,0 l/m 0 min 0 min 0 W/m 12,9 km/h (3 Bft) 95,74 %
13.01.2019 06:26 7,1 C 6,1 C 5,6 C 98 % 1006,8 hPa 0,0 l/m 0 min 0 min 0 W/m 12,9 km/h (3 Bft) 95,74 %
13.01.2019 06:28 7,1 C 6,1 C 5,6 C 98 % 1006,8 hPa 0,0 l/m 0 min 0 min 0 W/m 16,1 km/h (3 Bft) 95,74 %
13.01.2019 06:30 7,1 C 6,1 C 5,6 C 98 % 1006,6 hPa 0,0 l/m 0 min 2 min 0 W/m 9,7 km/h (2 Bft) 97,83 %
13.01.2019 06:32 7,1 C 6,1 C 5,6 C 98 % 1006,7 hPa 0,0 l/m 0 min 2 min 0 W/m 12,9 km/h (3 Bft) 95,74 %
13.01.2019 06:34 7,1 C 6,1 C 5,6 C 98 % 1006,7 hPa 0,0 l/m 0 min 2 min 0 W/m 12,9 km/h (3 Bft) 97,87 %
13.01.2019 06:36 7,1 C 6,1 C 5,6 C 98 % 1006,8 hPa 0,0 l/m 0 min 2 min 0 W/m 9,7 km/h (2 Bft) 97,87 %
13.01.2019 06:38 7,1 C 6,1 C 5,6 C 98 % 1006,7 hPa 0,0 l/m 0 min 2 min 0 W/m 9,7 km/h (2 Bft) 97,87 %
13.01.2019 06:40 7,1 C 6,7 C 5,6 C 98 % 1006,6 hPa 0,0 l/m 0 min 2 min 0 W/m 22,5 km/h (4 Bft) 97,87 %
13.01.2019 06:42 7,1 C 6,1 C 6,1 C 98 % 1006,6 hPa 0,0 l/m 0 min 2 min 0 W/m 9,7 km/h (2 Bft) 97,83 %
13.01.2019 06:44 7,1 C 6,1 C 5,6 C 98 % 1006,7 hPa 0,0 l/m 0 min 2 min 0 W/m 16,1 km/h (3 Bft) 95,74 %
13.01.2019 06:46 7,1 C 6,7 C 5,6 C 98 % 1006,6 hPa 0,0 l/m 0 min 2 min 0 W/m 16,1 km/h (3 Bft) 95,74 %
13.01.2019 06:48 7,1 C 6,7 C 6,1 C 98 % 1006,6 hPa 0,0 l/m 0 min 2 min 0 W/m 12,9 km/h (3 Bft) 93,62 %
13.01.2019 06:50 7,2 C 6,7 C 6,1 C 98 % 1006,5 hPa 0,0 l/m 0 min 2 min 0 W/m 12,9 km/h (3 Bft) 95,74 %
13.01.2019 06:52 7,2 C 6,7 C 6,1 C 98 % 1006,4 hPa 0,0 l/m 0 min 2 min 0 W/m 12,9 km/h (3 Bft) 93,62 %
13.01.2019 06:54 7,2 C 6,7 C 6,1 C 98 % 1006,4 hPa 0,0 l/m 0 min 2 min 0 W/m 12,9 km/h (3 Bft) 95,65 %
13.01.2019 06:56 7,2 C 6,7 C 6,1 C 98 % 1006,5 hPa 0,0 l/m 0 min 2 min 0 W/m 12,9 km/h (3 Bft) 95,74 %
13.01.2019 06:58 7,2 C 6,7 C 6,1 C 98 % 1006,4 hPa 0,2 l/m 0 min 2 min 0 W/m 16,1 km/h (3 Bft) 97,87 %
13.01.2019 07:00 7,2 C 6,7 C 6,1 C 98 % 1006,5 hPa 0,0 l/m 0 min 2 min 0 W/m 9,7 km/h (2 Bft) 97,87 %
13.01.2019 07:02 7,2 C 6,7 C 6,1 C 99 % 1006,5 hPa 0,0 l/m 0 min 2 min 0 W/m 9,7 km/h (2 Bft) 95,74 %
13.01.2019 07:04 7,2 C 6,7 C 6,1 C 99 % 1006,6 hPa 0,0 l/m 0 min 2 min 0 W/m 12,9 km/h (3 Bft) 97,83 %
13.01.2019 07:06 7,2 C 6,7 C 6,1 C 99 % 1006,5 hPa 0,0 l/m 0 min 2 min 0 W/m 12,9 km/h (3 Bft) 95,74 %
13.01.2019 07:08 7,2 C 6,7 C 6,1 C 99 % 1006,4 hPa 0,0 l/m 0 min 2 min 0 W/m 9,7 km/h (2 Bft) 97,87 %
13.01.2019 07:10 7,2 C 6,7 C 6,1 C 99 % 1006,5 hPa 0,0 l/m 0 min 2 min 0 W/m 22,5 km/h (4 Bft) 95,74 %
13.01.2019 07:12 7,2 C 6,7 C 6,1 C 99 % 1006,4 hPa 0,2 l/m 0 min 2 min 0 W/m 16,1 km/h (3 Bft) 97,87 %
13.01.2019 07:14 7,2 C 6,7 C 6,1 C 99 % 1006,4 hPa 0,0 l/m 0 min 2 min 0 W/m 9,7 km/h (2 Bft) 97,87 %
13.01.2019 07:16 7,2 C 6,7 C 6,1 C 99 % 1006,4 hPa 0,0 l/m 0 min 2 min 0 W/m 16,1 km/h (3 Bft) 97,83 %
13.01.2019 07:18 7,3 C 6,7 C 6,1 C 99 % 1006,3 hPa 0,2 l/m 0 min 2 min 0 W/m 16,1 km/h (3 Bft) 97,87 %
13.01.2019 07:20 7,3 C 6,7 C 6,1 C 99 % 1006,3 hPa 0,0 l/m 0 min 2 min 0 W/m 25,7 km/h (4 Bft) 97,87 %
13.01.2019 07:22 7,3 C 6,7 C 6,1 C 99 % 1006,4 hPa 0,2 l/m 0 min 2 min 0 W/m 19,3 km/h (3 Bft) 93,62 %
13.01.2019 07:24 7,3 C 6,7 C 6,1 C 99 % 1006,3 hPa 0,0 l/m 0 min 2 min 0 W/m 9,7 km/h (2 Bft) 97,87 %
13.01.2019 07:26 7,3 C 6,7 C 6,1 C 99 % 1006,4 hPa 0,0 l/m 0 min 2 min 0 W/m 25,7 km/h (4 Bft) 95,74 %
13.01.2019 07:28 7,3 C 6,7 C 6,1 C 99 % 1006,4 hPa 0,2 l/m 0 min 2 min 0 W/m 9,7 km/h (2 Bft) 100,00 %
13.01.2019 07:30 7,3 C 6,7 C 6,1 C 99 % 1006,3 hPa 0,0 l/m 0 min 2 min 0 W/m 16,1 km/h (3 Bft) 100,00 %
13.01.2019 07:32 7,3 C 6,7 C 6,1 C 99 % 1006,3 hPa 0,0 l/m 0 min 2 min 0 W/m 9,7 km/h (2 Bft) 100,00 %
13.01.2019 07:34 7,3 C 6,7 C 6,1 C 99 % 1006,2 hPa 0,2 l/m 0 min 2 min 0 W/m 12,9 km/h (3 Bft) 100,00 %
13.01.2019 07:36 7,3 C 6,7 C 6,1 C 99 % 1006,2 hPa 0,0 l/m 0 min 2 min 0 W/m 16,1 km/h (3 Bft) 97,87 %
13.01.2019 07:38 7,4 C 6,7 C 6,1 C 99 % 1006,2 hPa 0,0 l/m 0 min 2 min 0 W/m 12,9 km/h (3 Bft) 100,00 %
13.01.2019 07:40 7,4 C 6,7 C 6,1 C 99 % 1006,2 hPa 0,0 l/m 0 min 2 min 0 W/m 9,7 km/h (2 Bft) 100,00 %
13.01.2019 07:42 7,4 C 6,7 C 6,1 C 99 % 1006,3 hPa 0,0 l/m 0 min 2 min 0 W/m 12,9 km/h (3 Bft) 97,87 %
13.01.2019 07:44 7,4 C 6,7 C 6,1 C 99 % 1006,1 hPa 0,0 l/m 0 min 2 min 0 W/m 16,1 km/h (3 Bft) 100,00 %
13.01.2019 07:46 7,4 C 6,7 C 6,1 C 99 % 1006,1 hPa 0,2 l/m 0 min 2 min 0 W/m 9,7 km/h (2 Bft) 100,00 %
13.01.2019 07:48 7,4 C 6,7 C 6,1 C 99 % 1006,1 hPa 0,0 l/m 0 min 2 min 0 W/m 12,9 km/h (3 Bft) 100,00 %
13.01.2019 07:50 7,4 C 6,7 C 6,1 C 99 % 1006,1 hPa 0,0 l/m 0 min 2 min 0 W/m 22,5 km/h (4 Bft) 100,00 %
13.01.2019 07:52 7,4 C 6,7 C 6,1 C 99 % 1006,1 hPa 0,2 l/m 0 min 2 min 0 W/m 9,7 km/h (2 Bft) 100,00 %
13.01.2019 07:54 7,4 C 6,7 C 6,1 C 99 % 1006,1 hPa 0,0 l/m 0 min 2 min 0 W/m 9,7 km/h (2 Bft) 100,00 %
13.01.2019 07:56 7,4 C 6,7 C 6,1 C 99 % 1006,1 hPa 0,0 l/m 0 min 2 min 0 W/m 16,1 km/h (3 Bft) 100,00 %
13.01.2019 07:58 7,4 C 6,7 C 6,1 C 99 % 1006,1 hPa 0,0 l/m 0 min 2 min 0 W/m 12,9 km/h (3 Bft) 100,00 %
13.01.2019 08:00 7,4 C 6,7 C 6,1 C 99 % 1006,2 hPa 0,0 l/m 0 min 2 min 0 W/m 9,7 km/h (2 Bft) 100,00 %
13.01.2019 08:02 7,4 C 6,7 C 6,1 C 99 % 1006,1 hPa 0,0 l/m 0 min 2 min 0 W/m 12,9 km/h (3 Bft) 100,00 %
13.01.2019 08:04 7,4 C 6,7 C 6,1 C 99 % 1006,2 hPa 0,2 l/m 0 min 2 min 0 W/m 16,1 km/h (3 Bft) 95,65 %
13.01.2019 08:06 7,5 C 6,7 C 6,1 C 99 % 1006,1 hPa 0,0 l/m 0 min 2 min 0 W/m 12,9 km/h (3 Bft) 100,00 %
13.01.2019 08:08 7,5 C 6,7 C 6,1 C 99 % 1006,0 hPa 0,0 l/m 0 min 2 min 0 W/m 19,3 km/h (3 Bft) 95,74 %
13.01.2019 08:10 7,5 C 6,7 C 6,1 C 99 % 1006,1 hPa 0,0 l/m 0 min 2 min 0 W/m 16,1 km/h (3 Bft) 100,00 %
13.01.2019 08:12 7,5 C 6,7 C 6,1 C 99 % 1006,1 hPa 0,0 l/m 0 min 2 min 0 W/m 9,7 km/h (2 Bft) 100,00 %
13.01.2019 08:14 7,5 C 6,7 C 6,1 C 99 % 1006,1 hPa 0,0 l/m 0 min 2 min 0 W/m 9,7 km/h (2 Bft) 100,00 %
13.01.2019 08:16 7,5 C 6,7 C 6,1 C 99 % 1006,0 hPa 0,0 l/m 0 min 2 min 0 W/m 16,1 km/h (3 Bft) 97,87 %
13.01.2019 08:18 7,5 C 6,7 C 6,1 C 99 % 1006,0 hPa 0,0 l/m 0 min 2 min 0 W/m 12,9 km/h (3 Bft) 100,00 %
13.01.2019 08:20 7,6 C 6,7 C 6,1 C 99 % 1006,0 hPa 0,0 l/m 0 min 2 min 0 W/m 12,9 km/h (3 Bft) 100,00 %
13.01.2019 08:22 7,5 C 6,7 C 6,1 C 99 % 1006,0 hPa 0,2 l/m 0 min 2 min 0 W/m 19,3 km/h (3 Bft) 100,00 %
13.01.2019 08:24 7,6 C 6,7 C 6,1 C 99 % 1005,9 hPa 0,0 l/m 0 min 2 min 0 W/m 16,1 km/h (3 Bft) 100,00 %
13.01.2019 08:26 7,6 C 6,7 C 6,1 C 99 % 1005,9 hPa 0,0 l/m 0 min 2 min 0 W/m 16,1 km/h (3 Bft) 100,00 %
13.01.2019 08:28 7,6 C 6,7 C 6,1 C 99 % 1005,9 hPa 0,0 l/m 0 min 2 min 0 W/m 16,1 km/h (3 Bft) 97,87 %
13.01.2019 08:30 7,6 C 6,7 C 6,1 C 99 % 1005,8 hPa 0,0 l/m 0 min 2 min 0 W/m 12,9 km/h (3 Bft) 97,87 %
13.01.2019 08:32 7,6 C 6,7 C 6,1 C 99 % 1005,8 hPa 0,0 l/m 0 min 2 min 0 W/m 16,1 km/h (3 Bft) 100,00 %
13.01.2019 08:34 7,6 C 6,7 C 6,7 C 99 % 1005,9 hPa 0,2 l/m 0 min 2 min 0 W/m 16,1 km/h (3 Bft) 100,00 %
13.01.2019 08:36 7,6 C 6,7 C 6,7 C 99 % 1005,8 hPa 0,0 l/m 0 min 2 min 0 W/m 9,7 km/h (2 Bft) 97,87 %
13.01.2019 08:38 7,6 C 6,7 C 6,7 C 99 % 1005,8 hPa 0,0 l/m 0 min 2 min 0 W/m 6,4 km/h (2 Bft) 97,83 %
13.01.2019 08:40 7,7 C 7,2 C 6,7 C 99 % 1005,8 hPa 0,0 l/m 0 min 2 min 0 W/m 16,1 km/h (3 Bft) 95,74 %
13.01.2019 08:42 7,7 C 7,2 C 6,7 C 99 % 1005,7 hPa 0,0 l/m 0 min 2 min 0 W/m 9,7 km/h (2 Bft) 97,87 %
13.01.2019 08:44 7,7 C 7,2 C 6,7 C 99 % 1005,6 hPa 0,0 l/m 0 min 2 min 0 W/m 16,1 km/h (3 Bft) 97,87 %
13.01.2019 08:46 7,7 C 7,2 C 6,7 C 99 % 1005,6 hPa 0,0 l/m 0 min 2 min 0 W/m 16,1 km/h (3 Bft) 97,87 %
13.01.2019 08:48 7,7 C 7,2 C 6,7 C 99 % 1005,6 hPa 0,0 l/m 0 min 2 min 0 W/m 9,7 km/h (2 Bft) 97,87 %
13.01.2019 08:50 7,7 C 7,2 C 6,7 C 99 % 1005,7 hPa 0,2 l/m 0 min 2 min 0 W/m 16,1 km/h (3 Bft) 95,65 %
13.01.2019 08:52 7,7 C 7,2 C 6,7 C 99 % 1005,6 hPa 0,0 l/m 0 min 2 min 0 W/m 12,9 km/h (3 Bft) 93,62 %
13.01.2019 08:54 7,7 C 7,2 C 6,7 C 99 % 1005,6 hPa 0,0 l/m 0 min 2 min 0 W/m 12,9 km/h (3 Bft) 97,87 %
13.01.2019 08:56 7,8 C 7,2 C 6,7 C 99 % 1005,7 hPa 0,0 l/m 0 min 2 min 0 W/m 16,1 km/h (3 Bft) 97,87 %
13.01.2019 08:58 7,8 C 7,2 C 6,7 C 99 % 1005,7 hPa 0,0 l/m 0 min 2 min 0 W/m 16,1 km/h (3 Bft) 97,87 %
13.01.2019 09:00 7,8 C 7,2 C 6,7 C 99 % 1005,6 hPa 0,0 l/m 0 min 2 min 0 W/m 12,9 km/h (3 Bft) 97,87 %
13.01.2019 09:02 7,8 C 7,2 C 6,7 C 99 % 1005,6 hPa 0,0 l/m 0 min 2 min 4 W/m 22,5 km/h (4 Bft) 97,83 %
13.01.2019 09:04 7,8 C 7,2 C 6,7 C 99 % 1005,7 hPa 0,0 l/m 0 min 2 min 5 W/m 16,1 km/h (3 Bft) 97,87 %
13.01.2019 09:06 7,8 C 7,2 C 6,7 C 99 % 1005,7 hPa 0,0 l/m 0 min 2 min 1 W/m 9,7 km/h (2 Bft) 97,87 %
13.01.2019 09:08 7,9 C 7,2 C 6,7 C 99 % 1005,6 hPa 0,0 l/m 0 min 2 min 0 W/m 19,3 km/h (3 Bft) 95,74 %
13.01.2019 09:10 7,9 C 7,2 C 6,7 C 99 % 1005,7 hPa 0,0 l/m 0 min 2 min 1 W/m 12,9 km/h (3 Bft) 95,74 %
13.01.2019 09:12 7,9 C 7,2 C 6,7 C 99 % 1005,6 hPa 0,0 l/m 0 min 2 min 5 W/m 16,1 km/h (3 Bft) 93,62 %
13.01.2019 09:14 7,9 C 7,2 C 6,7 C 99 % 1005,5 hPa 0,0 l/m 0 min 2 min 6 W/m 19,3 km/h (3 Bft) 93,48 %
13.01.2019 09:16 7,9 C 7,2 C 6,7 C 99 % 1005,4 hPa 0,0 l/m 0 min 2 min 9 W/m 16,1 km/h (3 Bft) 93,62 %
13.01.2019 09:18 7,9 C 7,2 C 6,7 C 99 % 1005,5 hPa 0,0 l/m 0 min 2 min 10 W/m 16,1 km/h (3 Bft) 91,49 %
13.01.2019 09:20 8,0 C 7,2 C 6,7 C 99 % 1005,5 hPa 0,2 l/m 0 min 2 min 9 W/m 29,0 km/h (5 Bft) 93,62 %
13.01.2019 09:22 8,0 C 7,2 C 6,7 C 99 % 1005,5 hPa 0,0 l/m 0 min 2 min 8 W/m 25,7 km/h (4 Bft) 91,49 %
13.01.2019 09:24 8,1 C 7,2 C 6,7 C 99 % 1005,5 hPa 0,0 l/m 0 min 2 min 5 W/m 19,3 km/h (3 Bft) 89,36 %
13.01.2019 09:26 8,1 C 7,2 C 6,7 C 99 % 1005,5 hPa 0,0 l/m 0 min 0 min 5 W/m 22,5 km/h (4 Bft) 95,65 %
13.01.2019 09:28 8,1 C 7,2 C 6,7 C 99 % 1005,5 hPa 0,0 l/m 0 min 2 min 5 W/m 32,2 km/h (5 Bft) 93,62 %
13.01.2019 09:30 8,1 C 7,2 C 6,7 C 99 % 1005,4 hPa 0,0 l/m 0 min 2 min 3 W/m 22,5 km/h (4 Bft) 95,74 %
13.01.2019 09:32 8,1 C 7,2 C 6,7 C 99 % 1005,4 hPa 0,0 l/m 0 min 2 min 5 W/m 12,9 km/h (3 Bft) 89,36 %
13.01.2019 09:34 8,1 C 7,2 C 6,7 C 99 % 1005,6 hPa 0,0 l/m 0 min 2 min 5 W/m 16,1 km/h (3 Bft) 93,62 %
13.01.2019 09:36 8,1 C 7,2 C 6,7 C 99 % 1005,5 hPa 0,0 l/m 0 min 2 min 7 W/m 19,3 km/h (3 Bft) 95,65 %
13.01.2019 09:38 8,2 C 7,2 C 6,7 C 99 % 1005,4 hPa 0,0 l/m 0 min 2 min 8 W/m 19,3 km/h (3 Bft) 93,62 %
13.01.2019 09:40 8,2 C 7,2 C 6,7 C 99 % 1005,5 hPa 0,0 l/m 0 min 2 min 10 W/m 12,9 km/h (3 Bft) 97,87 %
13.01.2019 09:42 8,2 C 7,2 C 6,7 C 99 % 1005,5 hPa 0,0 l/m 0 min 2 min 9 W/m 9,7 km/h (2 Bft) 97,83 %
13.01.2019 09:44 8,2 C 7,2 C 6,7 C 99 % 1005,5 hPa 0,0 l/m 0 min 2 min 10 W/m 19,3 km/h (3 Bft) 95,74 %
13.01.2019 09:46 8,2 C 7,2 C 6,7 C 99 % 1005,5 hPa 0,0 l/m 0 min 2 min 11 W/m 19,3 km/h (3 Bft) 93,62 %
13.01.2019 09:48 8,2 C 7,2 C 6,7 C 99 % 1005,4 hPa 0,0 l/m 0 min 2 min 11 W/m 22,5 km/h (4 Bft) 95,74 %
13.01.2019 09:50 8,2 C 7,2 C 7,2 C 99 % 1005,4 hPa 0,0 l/m 0 min 2 min 9 W/m 22,5 km/h (4 Bft) 93,48 %
13.01.2019 09:52 8,2 C 7,8 C 7,2 C 99 % 1005,5 hPa 0,0 l/m 0 min 2 min 10 W/m 22,5 km/h (4 Bft) 95,74 %
13.01.2019 09:54 8,2 C 7,2 C 7,2 C 99 % 1005,4 hPa 0,2 l/m 0 min 2 min 9 W/m 19,3 km/h (3 Bft) 97,87 %
13.01.2019 09:56 8,2 C 7,2 C 7,2 C 99 % 1005,4 hPa 0,0 l/m 0 min 2 min 10 W/m 12,9 km/h (3 Bft) 95,74 %
13.01.2019 09:58 8,2 C 7,8 C 7,2 C 99 % 1005,5 hPa 0,0 l/m 0 min 2 min 11 W/m 22,5 km/h (4 Bft) 97,87 %
13.01.2019 10:00 8,2 C 7,2 C 7,2 C 99 % 1005,4 hPa 0,0 l/m 0 min 2 min 11 W/m 16,1 km/h (3 Bft) 97,83 %
13.01.2019 10:02 8,2 C 7,2 C 7,2 C 99 % 1005,3 hPa 0,0 l/m 0 min 2 min 9 W/m 25,7 km/h (4 Bft) 97,87 %
13.01.2019 10:04 8,2 C 7,2 C 7,2 C 99 % 1005,3 hPa 0,0 l/m 0 min 2 min 9 W/m 19,3 km/h (3 Bft) 97,87 %
13.01.2019 10:06 8,2 C 7,2 C 7,2 C 99 % 1005,2 hPa 0,0 l/m 0 min 2 min 10 W/m 16,1 km/h (3 Bft) 100,00 %
13.01.2019 10:08 8,2 C 7,2 C 7,2 C 99 % 1005,3 hPa 0,0 l/m 0 min 2 min 9 W/m 16,1 km/h (3 Bft) 100,00 %
13.01.2019 10:10 8,2 C 7,2 C 7,2 C 99 % 1005,2 hPa 0,0 l/m 0 min 2 min 8 W/m 19,3 km/h (3 Bft) 97,87 %
13.01.2019 10:12 8,2 C 7,2 C 7,2 C 99 % 1005,1 hPa 0,0 l/m 0 min 0 min 9 W/m 19,3 km/h (3 Bft) 100,00 %
13.01.2019 10:14 8,2 C 7,2 C 7,2 C 99 % 1005,0 hPa 0,0 l/m 0 min 0 min 11 W/m 25,7 km/h (4 Bft) 97,87 %
13.01.2019 10:16 8,2 C 7,8 C 7,2 C 99 % 1005,0 hPa 0,0 l/m 0 min 0 min 13 W/m 16,1 km/h (3 Bft) 100,00 %
13.01.2019 10:18 8,2 C 7,2 C 7,2 C 99 % 1005,0 hPa 0,0 l/m 0 min 2 min 17 W/m 16,1 km/h (3 Bft) 100,00 %
13.01.2019 10:20 8,2 C 7,8 C 7,2 C 99 % 1004,9 hPa 0,0 l/m 0 min 2 min 16 W/m 16,1 km/h (3 Bft) 100,00 %
13.01.2019 10:22 8,2 C 7,8 C 7,2 C 99 % 1005,1 hPa 0,0 l/m 0 min 0 min 15 W/m 16,1 km/h (3 Bft) 95,74 %
13.01.2019 10:24 8,2 C 7,2 C 7,2 C 99 % 1005,1 hPa 0,0 l/m 0 min 0 min 14 W/m 16,1 km/h (3 Bft) 97,83 %
13.01.2019 10:26 8,2 C 7,2 C 7,2 C 99 % 1005,1 hPa 0,0 l/m 0 min 0 min 11 W/m 29,0 km/h (5 Bft) 95,74 %
13.01.2019 10:28 8,2 C 7,2 C 7,2 C 99 % 1005,0 hPa 0,0 l/m 0 min 0 min 11 W/m 19,3 km/h (3 Bft) 100,00 %
13.01.2019 10:30 8,2 C 7,2 C 7,2 C 99 % 1004,8 hPa 0,0 l/m 0 min 0 min 13 W/m 16,1 km/h (3 Bft) 100,00 %
13.01.2019 10:32 8,2 C 7,2 C 7,2 C 99 % 1004,8 hPa 0,0 l/m 0 min 0 min 18 W/m 22,5 km/h (4 Bft) 100,00 %
13.01.2019 10:34 8,2 C 7,8 C 7,2 C 99 % 1004,8 hPa 0,0 l/m 0 min 0 min 14 W/m 16,1 km/h (3 Bft) 100,00 %
13.01.2019 10:36 8,2 C 7,2 C 7,2 C 99 % 1004,8 hPa 0,0 l/m 0 min 0 min 11 W/m 22,5 km/h (4 Bft) 100,00 %
13.01.2019 10:38 8,2 C 7,2 C 7,2 C 99 % 1004,8 hPa 0,0 l/m 0 min 0 min 12 W/m 9,7 km/h (2 Bft) 100,00 %
13.01.2019 10:40 8,2 C 7,2 C 7,2 C 99 % 1004,8 hPa 0,0 l/m 0 min 2 min 15 W/m 29,0 km/h (5 Bft) 100,00 %
13.01.2019 10:42 8,2 C 7,2 C 7,2 C 99 % 1004,8 hPa 0,0 l/m 0 min 0 min 19 W/m 9,7 km/h (2 Bft) 100,00 %
13.01.2019 10:44 8,2 C 7,8 C 7,2 C 99 % 1004,8 hPa 0,0 l/m 0 min 0 min 21 W/m 19,3 km/h (3 Bft) 100,00 %
13.01.2019 10:46 8,2 C 7,2 C 7,2 C 99 % 1004,8 hPa 0,0 l/m 0 min 0 min 20 W/m 19,3 km/h (3 Bft) 100,00 %
13.01.2019 10:48 8,2 C 7,2 C 7,2 C 99 % 1004,8 hPa 0,0 l/m 0 min 0 min 15 W/m 16,1 km/h (3 Bft) 100,00 %
13.01.2019 10:50 8,2 C 7,2 C 6,7 C 99 % 1004,9 hPa 0,2 l/m 0 min 0 min 11 W/m 16,1 km/h (3 Bft) 100,00 %
13.01.2019 10:52 8,2 C 7,2 C 6,7 C 99 % 1004,8 hPa 0,0 l/m 0 min 0 min 11 W/m 16,1 km/h (3 Bft) 100,00 %
13.01.2019 10:54 8,2 C 7,2 C 7,2 C 99 % 1004,7 hPa 0,0 l/m 0 min 0 min 14 W/m 25,7 km/h (4 Bft) 100,00 %
13.01.2019 10:56 8,2 C 7,2 C 7,2 C 99 % 1004,8 hPa 0,0 l/m 0 min 0 min 15 W/m 12,9 km/h (3 Bft) 97,87 %
13.01.2019 10:58 8,2 C 7,2 C 7,2 C 99 % 1004,7 hPa 0,0 l/m 0 min 0 min 19 W/m 19,3 km/h (3 Bft) 100,00 %
13.01.2019 11:00 8,2 C 7,2 C 7,2 C 99 % 1004,7 hPa 0,0 l/m 0 min 0 min 21 W/m 9,7 km/h (2 Bft) 100,00 %
13.01.2019 11:02 8,2 C 7,2 C 7,2 C 99 % 1004,7 hPa 0,0 l/m 0 min 0 min 20 W/m 12,9 km/h (3 Bft) 97,87 %
13.01.2019 11:04 8,2 C 7,2 C 7,2 C 99 % 1004,7 hPa 0,0 l/m 0 min 0 min 19 W/m 12,9 km/h (3 Bft) 100,00 %
13.01.2019 11:06 8,2 C 7,2 C 7,2 C 99 % 1004,5 hPa 0,0 l/m 0 min 0 min 15 W/m 19,3 km/h (3 Bft) 100,00 %
13.01.2019 11:08 8,2 C 7,2 C 7,2 C 99 % 1004,4 hPa 0,0 l/m 0 min 0 min 16 W/m 25,7 km/h (4 Bft) 100,00 %
13.01.2019 11:10 8,2 C 7,2 C 7,2 C 99 % 1004,4 hPa 0,0 l/m 0 min 0 min 16 W/m 16,1 km/h (3 Bft) 100,00 %
13.01.2019 11:12 8,2 C 7,2 C 7,2 C 99 % 1004,4 hPa 0,0 l/m 0 min 0 min 16 W/m 22,5 km/h (4 Bft) 100,00 %
13.01.2019 11:14 8,2 C 7,8 C 7,2 C 99 % 1004,5 hPa 0,0 l/m 0 min 0 min 19 W/m 12,9 km/h (3 Bft) 100,00 %
13.01.2019 11:16 8,2 C 7,8 C 7,2 C 99 % 1004,5 hPa 0,0 l/m 0 min 0 min 22 W/m 16,1 km/h (3 Bft) 100,00 %
13.01.2019 11:18 8,2 C 7,8 C 7,2 C 99 % 1004,5 hPa 0,0 l/m 0 min 0 min 21 W/m 16,1 km/h (3 Bft) 100,00 %
13.01.2019 11:20 8,2 C 7,8 C 7,2 C 99 % 1004,5 hPa 0,0 l/m 0 min 0 min 17 W/m 32,2 km/h (5 Bft) 100,00 %
13.01.2019 11:22 8,2 C 7,8 C 7,2 C 99 % 1004,6 hPa 0,0 l/m 0 min 0 min 12 W/m 16,1 km/h (3 Bft) 95,65 %
13.01.2019 11:24 8,2 C 7,8 C 7,2 C 99 % 1004,6 hPa 0,0 l/m 0 min 0 min 11 W/m 16,1 km/h (3 Bft) 100,00 %
13.01.2019 11:26 8,2 C 7,8 C 7,2 C 99 % 1004,6 hPa 0,0 l/m 0 min 0 min 12 W/m 19,3 km/h (3 Bft) 100,00 %
13.01.2019 11:28 8,2 C 7,8 C 7,2 C 99 % 1004,5 hPa 0,0 l/m 0 min 0 min 17 W/m 25,7 km/h (4 Bft) 100,00 %
13.01.2019 11:30 8,2 C 7,8 C 7,2 C 99 % 1004,5 hPa 0,0 l/m 0 min 0 min 17 W/m 12,9 km/h (3 Bft) 97,87 %
13.01.2019 11:32 8,2 C 7,8 C 7,2 C 99 % 1004,4 hPa 0,0 l/m 0 min 0 min 19 W/m 16,1 km/h (3 Bft) 100,00 %
13.01.2019 11:34 8,2 C 7,8 C 7,2 C 99 % 1004,4 hPa 0,0 l/m 0 min 2 min 19 W/m 9,7 km/h (2 Bft) 100,00 %
13.01.2019 11:36 8,2 C 7,8 C 7,2 C 99 % 1004,3 hPa 0,0 l/m 0 min 0 min 18 W/m 16,1 km/h (3 Bft) 95,74 %
13.01.2019 11:38 8,2 C 7,8 C 7,2 C 99 % 1004,3 hPa 0,0 l/m 0 min 2 min 18 W/m 16,1 km/h (3 Bft) 93,62 %
13.01.2019 11:40 8,2 C 7,8 C 7,2 C 99 % 1004,2 hPa 0,0 l/m 0 min 2 min 18 W/m 16,1 km/h (3 Bft) 95,74 %
13.01.2019 11:42 8,2 C 7,8 C 7,2 C 99 % 1004,2 hPa 0,0 l/m 0 min 2 min 25 W/m 16,1 km/h (3 Bft) 93,62 %
13.01.2019 11:44 8,2 C 7,8 C 7,2 C 99 % 1004,1 hPa 0,0 l/m 0 min 2 min 25 W/m 25,7 km/h (4 Bft) 95,65 %
13.01.2019 11:46 8,3 C 7,8 C 7,2 C 99 % 1004,0 hPa 0,0 l/m 0 min 2 min 19 W/m 22,5 km/h (4 Bft) 93,62 %
13.01.2019 11:48 8,3 C 7,8 C 7,2 C 99 % 1004,0 hPa 0,0 l/m 0 min 2 min 20 W/m 16,1 km/h (3 Bft) 95,74 %
13.01.2019 11:50 8,3 C 7,8 C 7,2 C 99 % 1004,0 hPa 0,0 l/m 0 min 2 min 32 W/m 16,1 km/h (3 Bft) 95,74 %
13.01.2019 11:52 8,3 C 7,8 C 7,2 C 99 % 1003,9 hPa 0,0 l/m 0 min 2 min 41 W/m 16,1 km/h (3 Bft) 95,74 %
13.01.2019 11:54 8,3 C 7,8 C 7,2 C 99 % 1003,9 hPa 0,0 l/m 0 min 2 min 47 W/m 19,3 km/h (3 Bft) 95,74 %
13.01.2019 11:56 8,3 C 7,8 C 7,2 C 99 % 1003,8 hPa 0,0 l/m 0 min 2 min 47 W/m 19,3 km/h (3 Bft) 91,30 %
13.01.2019 11:58 8,3 C 7,8 C 7,2 C 99 % 1003,7 hPa 0,0 l/m 0 min 2 min 41 W/m 22,5 km/h (4 Bft) 95,74 %
13.01.2019 12:00 8,3 C 7,8 C 7,2 C 99 % 1003,7 hPa 0,0 l/m 0 min 2 min 42 W/m 22,5 km/h (4 Bft) 95,74 %
13.01.2019 12:02 8,3 C 7,8 C 7,2 C 99 % 1003,7 hPa 0,0 l/m 0 min 2 min 53 W/m 22,5 km/h (4 Bft) 95,74 %
13.01.2019 12:04 8,3 C 7,8 C 7,2 C 99 % 1003,7 hPa 0,0 l/m 0 min 2 min 62 W/m 22,5 km/h (4 Bft) 91,49 %
13.01.2019 12:07 8,3 C 7,8 C 7,2 C 99 % 1003,6 hPa 0,2 l/m 0 min 3 min 55 W/m 32,2 km/h (5 Bft) 92,86 %
13.01.2019 12:08 8,3 C 7,8 C 7,2 C 99 % 1003,6 hPa 0,0 l/m 0 min 1 min 49 W/m 16,1 km/h (3 Bft) 95,65 %
13.01.2019 12:10 8,3 C 7,8 C 7,2 C 99 % 1003,6 hPa 0,0 l/m 0 min 2 min 51 W/m 16,1 km/h (3 Bft) 91,49 %
13.01.2019 12:12 8,3 C 7,8 C 7,2 C 99 % 1003,7 hPa 0,0 l/m 0 min 2 min 45 W/m 25,7 km/h (4 Bft) 95,74 %
13.01.2019 12:14 8,3 C 7,8 C 7,2 C 99 % 1003,7 hPa 0,0 l/m 0 min 2 min 41 W/m 19,3 km/h (3 Bft) 93,62 %
13.01.2019 12:16 8,3 C 7,8 C 7,2 C 99 % 1003,6 hPa 0,0 l/m 0 min 2 min 39 W/m 22,5 km/h (4 Bft) 91,49 %
13.01.2019 12:18 8,3 C 7,8 C 7,2 C 99 % 1003,5 hPa 0,2 l/m 0 min 2 min 46 W/m 22,5 km/h (4 Bft) 93,62 %
13.01.2019 12:20 8,3 C 7,8 C 7,2 C 99 % 1003,5 hPa 0,0 l/m 0 min 2 min 43 W/m 22,5 km/h (4 Bft) 95,65 %
13.01.2019 12:22 8,3 C 7,8 C 7,2 C 99 % 1003,4 hPa 0,0 l/m 0 min 2 min 33 W/m 12,9 km/h (3 Bft) 95,74 %
13.01.2019 12:24 8,3 C 7,8 C 7,2 C 99 % 1003,3 hPa 0,0 l/m 0 min 2 min 33 W/m 12,9 km/h (3 Bft) 95,74 %
13.01.2019 12:26 8,3 C 7,8 C 7,2 C 99 % 1003,3 hPa 0,2 l/m 0 min 2 min 37 W/m 16,1 km/h (3 Bft) 97,87 %
13.01.2019 12:28 8,3 C 7,8 C 7,2 C 99 % 1003,3 hPa 0,0 l/m 0 min 2 min 35 W/m 29,0 km/h (5 Bft) 97,87 %
13.01.2019 12:30 8,3 C 7,8 C 7,2 C 99 % 1003,3 hPa 0,0 l/m 0 min 2 min 39 W/m 22,5 km/h (4 Bft) 97,87 %
13.01.2019 12:32 8,3 C 7,8 C 7,2 C 99 % 1003,3 hPa 0,2 l/m 0 min 2 min 42 W/m 25,7 km/h (4 Bft) 97,83 %
13.01.2019 12:34 8,3 C 7,8 C 7,2 C 99 % 1003,3 hPa 0,0 l/m 0 min 2 min 43 W/m 29,0 km/h (5 Bft) 97,87 %
13.01.2019 12:36 8,3 C 7,8 C 7,2 C 99 % 1003,1 hPa 0,0 l/m 0 min 2 min 27 W/m 19,3 km/h (3 Bft) 93,62 %
13.01.2019 12:38 8,3 C 7,8 C 7,2 C 99 % 1003,2 hPa 0,0 l/m 0 min 2 min 23 W/m 22,5 km/h (4 Bft) 97,87 %
13.01.2019 12:40 8,3 C 7,8 C 7,2 C 99 % 1003,1 hPa 0,2 l/m 0 min 2 min 26 W/m 22,5 km/h (4 Bft) 100,00 %
13.01.2019 12:42 8,3 C 7,8 C 7,2 C 99 % 1003,0 hPa 0,0 l/m 0 min 2 min 28 W/m 32,2 km/h (5 Bft) 97,87 %
13.01.2019 12:44 8,3 C 7,8 C 7,2 C 99 % 1003,1 hPa 0,0 l/m 0 min 2 min 25 W/m 25,7 km/h (4 Bft) 95,74 %
13.01.2019 12:46 8,3 C 7,8 C 7,2 C 99 % 1003,1 hPa 0,2 l/m 0 min 2 min 22 W/m 29,0 km/h (5 Bft) 95,74 %
13.01.2019 12:48 8,3 C 7,8 C 7,2 C 99 % 1003,0 hPa 0,0 l/m 0 min 2 min 27 W/m 25,7 km/h (4 Bft) 97,83 %
13.01.2019 12:50 8,3 C 7,8 C 7,2 C 99 % 1002,9 hPa 0,0 l/m 0 min 2 min 31 W/m 19,3 km/h (3 Bft) 97,87 %
13.01.2019 12:52 8,3 C 7,8 C 7,2 C 99 % 1002,9 hPa 0,0 l/m 0 min 2 min 33 W/m 16,1 km/h (3 Bft) 97,87 %
13.01.2019 12:54 8,3 C 7,8 C 7,2 C 99 % 1003,0 hPa 0,0 l/m 0 min 2 min 28 W/m 19,3 km/h (3 Bft) 97,87 %
13.01.2019 12:56 8,3 C 7,8 C 7,2 C 99 % 1002,9 hPa 0,0 l/m 0 min 2 min 27 W/m 16,1 km/h (3 Bft) 97,87 %
13.01.2019 12:58 8,3 C 7,8 C 7,2 C 99 % 1002,8 hPa 0,0 l/m 0 min 2 min 28 W/m 12,9 km/h (3 Bft) 97,87 %
13.01.2019 13:00 8,3 C 7,8 C 7,2 C 99 % 1002,8 hPa 0,0 l/m 0 min 2 min 32 W/m 22,5 km/h (4 Bft) 97,83 %
13.01.2019 13:02 8,3 C 7,8 C 7,2 C 99 % 1002,7 hPa 0,0 l/m 0 min 2 min 39 W/m 22,5 km/h (4 Bft) 97,87 %
13.01.2019 13:04 8,3 C 7,8 C 7,2 C 99 % 1002,7 hPa 0,0 l/m 0 min 0 min 36 W/m 19,3 km/h (3 Bft) 95,74 %
13.01.2019 13:06 8,3 C 7,8 C 7,2 C 99 % 1002,6 hPa 0,0 l/m 0 min 0 min 35 W/m 25,7 km/h (4 Bft) 98,28 %
13.01.2019 13:08 8,4 C 7,8 C 7,2 C 99 % 1002,5 hPa 0,2 l/m 0 min 0 min 34 W/m 22,5 km/h (4 Bft) 97,22 %
13.01.2019 13:10 8,4 C 7,8 C 7,2 C 99 % 1002,6 hPa 0,0 l/m 0 min 0 min 38 W/m 19,3 km/h (3 Bft) 97,83 %
13.01.2019 13:12 8,4 C 7,8 C 7,2 C 99 % 1002,6 hPa 0,0 l/m 0 min 0 min 36 W/m 12,9 km/h (3 Bft) 97,87 %
13.01.2019 13:14 8,4 C 7,8 C 7,2 C 99 % 1002,6 hPa 0,0 l/m 0 min 0 min 35 W/m 12,9 km/h (3 Bft) 97,87 %
13.01.2019 13:16 8,4 C 7,8 C 7,2 C 99 % 1002,5 hPa 0,0 l/m 0 min 0 min 32 W/m 29,0 km/h (5 Bft) 100,00 %
13.01.2019 13:18 8,4 C 7,8 C 7,2 C 99 % 1002,6 hPa 0,0 l/m 0 min 0 min 34 W/m 22,5 km/h (4 Bft) 100,00 %
13.01.2019 13:20 8,4 C 7,8 C 7,2 C 99 % 1002,5 hPa 0,0 l/m 0 min 0 min 35 W/m 25,7 km/h (4 Bft) 100,00 %
13.01.2019 13:22 8,4 C 7,8 C 7,2 C 99 % 1002,4 hPa 0,0 l/m 0 min 0 min 35 W/m 22,5 km/h (4 Bft) 100,00 %
13.01.2019 13:24 8,4 C 7,8 C 7,2 C 99 % 1002,4 hPa 0,0 l/m 0 min 0 min 38 W/m 16,1 km/h (3 Bft) 100,00 %
13.01.2019 13:26 8,4 C 7,8 C 7,2 C 99 % 1002,5 hPa 0,0 l/m 0 min 0 min 37 W/m 16,1 km/h (3 Bft) 100,00 %
13.01.2019 13:28 8,4 C 7,8 C 7,2 C 99 % 1002,3 hPa 0,0 l/m 0 min 0 min 38 W/m 12,9 km/h (3 Bft) 100,00 %
13.01.2019 13:30 8,4 C 7,8 C 7,2 C 99 % 1002,3 hPa 0,0 l/m 0 min 2 min 38 W/m 22,5 km/h (4 Bft) 100,00 %
13.01.2019 13:32 8,4 C 7,8 C 7,2 C 99 % 1002,3 hPa 0,0 l/m 0 min 2 min 35 W/m 25,7 km/h (4 Bft) 100,00 %
13.01.2019 13:34 8,4 C 7,8 C 7,2 C 99 % 1002,3 hPa 0,0 l/m 0 min 2 min 37 W/m 16,1 km/h (3 Bft) 100,00 %
13.01.2019 13:36 8,4 C 7,8 C 7,2 C 99 % 1002,3 hPa 0,0 l/m 0 min 0 min 34 W/m 16,1 km/h (3 Bft) 100,00 %
13.01.2019 13:38 8,4 C 7,8 C 7,2 C 99 % 1002,2 hPa 0,0 l/m 0 min 0 min 35 W/m 22,5 km/h (4 Bft) 100,00 %
13.01.2019 13:40 8,4 C 7,8 C 7,2 C 99 % 1002,2 hPa 0,0 l/m 0 min 0 min 36 W/m 12,9 km/h (3 Bft) 100,00 %
13.01.2019 13:42 8,4 C 7,8 C 7,2 C 99 % 1002,2 hPa 0,0 l/m 0 min 0 min 34 W/m 25,7 km/h (4 Bft) 100,00 %
13.01.2019 13:44 8,4 C 7,8 C 7,2 C 99 % 1002,2 hPa 0,0 l/m 0 min 0 min 33 W/m 29,0 km/h (5 Bft) 100,00 %
13.01.2019 13:46 8,4 C 7,8 C 7,2 C 99 % 1002,2 hPa 0,0 l/m 0 min 0 min 38 W/m 19,3 km/h (3 Bft) 100,00 %
13.01.2019 13:48 8,4 C 7,8 C 7,2 C 99 % 1002,1 hPa 0,0 l/m 0 min 0 min 34 W/m 25,7 km/h (4 Bft) 97,87 %
13.01.2019 13:50 8,4 C 7,8 C 7,2 C 99 % 1002,1 hPa 0,0 l/m 0 min 0 min 29 W/m 22,5 km/h (4 Bft) 100,00 %
13.01.2019 13:52 8,4 C 7,8 C 7,2 C 99 % 1002,1 hPa 0,0 l/m 0 min 0 min 25 W/m 12,9 km/h (3 Bft) 97,87 %
13.01.2019 13:54 8,4 C 7,8 C 7,2 C 99 % 1002,0 hPa 0,0 l/m 0 min 0 min 28 W/m 22,5 km/h (4 Bft) 100,00 %
13.01.2019 13:56 8,4 C 7,8 C 7,2 C 99 % 1002,1 hPa 0,2 l/m 0 min 0 min 30 W/m 25,7 km/h (4 Bft) 100,00 %
13.01.2019 13:58 8,4 C 7,8 C 7,2 C 99 % 1002,1 hPa 0,0 l/m 0 min 0 min 30 W/m 16,1 km/h (3 Bft) 100,00 %
13.01.2019 14:00 8,4 C 7,8 C 7,2 C 99 % 1002,0 hPa 0,0 l/m 0 min 0 min 35 W/m 25,7 km/h (4 Bft) 97,87 %
13.01.2019 14:02 8,4 C 7,8 C 7,2 C 99 % 1001,9 hPa 0,0 l/m 0 min 0 min 30 W/m 25,7 km/h (4 Bft) 97,87 %
13.01.2019 14:04 8,4 C 7,8 C 7,2 C 99 % 1001,9 hPa 0,0 l/m 0 min 0 min 26 W/m 19,3 km/h (3 Bft) 97,87 %
13.01.2019 14:06 8,4 C 7,8 C 7,2 C 99 % 1002,0 hPa 0,0 l/m 0 min 0 min 24 W/m 19,3 km/h (3 Bft) 94,83 %
13.01.2019 14:08 8,4 C 7,8 C 7,2 C 99 % 1001,9 hPa 0,0 l/m 0 min 0 min 27 W/m 22,5 km/h (4 Bft) 100,00 %
13.01.2019 14:10 8,4 C 7,8 C 7,2 C 99 % 1001,8 hPa 0,0 l/m 0 min 0 min 22 W/m 22,5 km/h (4 Bft) 97,14 %
13.01.2019 14:12 8,4 C 7,8 C 7,2 C 99 % 1001,8 hPa 0,0 l/m 0 min 0 min 21 W/m 22,5 km/h (4 Bft) 97,87 %
13.01.2019 14:14 8,4 C 7,8 C 7,2 C 99 % 1001,8 hPa 0,0 l/m 0 min 0 min 23 W/m 19,3 km/h (3 Bft) 97,87 %
13.01.2019 14:16 8,4 C 7,8 C 7,2 C 99 % 1001,8 hPa 0,0 l/m 0 min 0 min 23 W/m 22,5 km/h (4 Bft) 97,87 %
13.01.2019 14:18 8,4 C 7,8 C 7,2 C 99 % 1001,7 hPa 0,0 l/m 0 min 0 min 26 W/m 22,5 km/h (4 Bft) 97,87 %
13.01.2019 14:20 8,4 C 7,8 C 7,2 C 99 % 1001,6 hPa 0,0 l/m 0 min 0 min 21 W/m 12,9 km/h (3 Bft) 97,83 %
13.01.2019 14:22 8,4 C 7,8 C 7,2 C 99 % 1001,5 hPa 0,0 l/m 0 min 0 min 22 W/m 29,0 km/h (5 Bft) 97,87 %
13.01.2019 14:24 8,4 C 7,8 C 7,2 C 99 % 1001,4 hPa 0,0 l/m 0 min 0 min 21 W/m 22,5 km/h (4 Bft) 95,74 %
13.01.2019 14:26 8,4 C 7,8 C 7,2 C 99 % 1001,5 hPa 0,0 l/m 0 min 0 min 21 W/m 19,3 km/h (3 Bft) 95,74 %
13.01.2019 14:28 8,4 C 7,8 C 7,2 C 99 % 1001,7 hPa 0,0 l/m 0 min 0 min 18 W/m 19,3 km/h (3 Bft) 95,74 %
13.01.2019 14:30 8,4 C 7,8 C 7,2 C 99 % 1001,6 hPa 0,2 l/m 0 min 2 min 13 W/m 25,7 km/h (4 Bft) 97,87 %
13.01.2019 14:32 8,4 C 7,8 C 7,2 C 99 % 1001,5 hPa 0,0 l/m 0 min 2 min 14 W/m 19,3 km/h (3 Bft) 97,83 %
13.01.2019 14:34 8,4 C 7,8 C 7,2 C 99 % 1001,6 hPa 0,0 l/m 0 min 0 min 13 W/m 25,7 km/h (4 Bft) 97,87 %
13.01.2019 14:36 8,4 C 7,8 C 7,2 C 99 % 1001,5 hPa 0,0 l/m 0 min 0 min 14 W/m 25,7 km/h (4 Bft) 98,31 %
13.01.2019 14:38 8,4 C 7,8 C 7,2 C 99 % 1001,5 hPa 0,0 l/m 0 min 0 min 16 W/m 19,3 km/h (3 Bft) 95,74 %
13.01.2019 14:40 8,4 C 7,8 C 7,2 C 99 % 1001,7 hPa 0,0 l/m 0 min 0 min 16 W/m 32,2 km/h (5 Bft) 91,43 %
13.01.2019 14:42 8,4 C 7,8 C 7,2 C 99 % 1001,6 hPa 0,0 l/m 0 min 2 min 15 W/m 22,5 km/h (4 Bft) 95,74 %
13.01.2019 14:44 8,4 C 7,8 C 7,2 C 99 % 1001,5 hPa 0,0 l/m 0 min 0 min 16 W/m 16,1 km/h (3 Bft) 95,65 %
13.01.2019 14:46 8,4 C 7,8 C 7,2 C 99 % 1001,4 hPa 0,0 l/m 0 min 0 min 18 W/m 25,7 km/h (4 Bft) 95,74 %
13.01.2019 14:48 8,4 C 7,8 C 7,2 C 99 % 1001,3 hPa 0,0 l/m 0 min 0 min 21 W/m 19,3 km/h (3 Bft) 97,87 %
13.01.2019 14:50 8,4 C 7,8 C 7,2 C 99 % 1001,4 hPa 0,0 l/m 0 min 0 min 17 W/m 29,0 km/h (5 Bft) 97,87 %
13.01.2019 14:52 8,4 C 7,8 C 7,2 C 99 % 1001,4 hPa 0,0 l/m 0 min 0 min 18 W/m 22,5 km/h (4 Bft) 97,87 %
13.01.2019 14:54 8,4 C 7,8 C 7,2 C 99 % 1001,3 hPa 0,0 l/m 0 min 0 min 19 W/m 16,1 km/h (3 Bft) 95,74 %
13.01.2019 14:56 8,4 C 7,8 C 7,2 C 99 % 1001,4 hPa 0,0 l/m 0 min 0 min 19 W/m 29,0 km/h (5 Bft) 97,83 %
13.01.2019 14:58 8,4 C 7,8 C 7,2 C 99 % 1001,4 hPa 0,0 l/m 0 min 0 min 19 W/m 25,7 km/h (4 Bft) 95,74 %
13.01.2019 15:00 8,4 C 7,8 C 7,2 C 99 % 1001,4 hPa 0,0 l/m 0 min 0 min 16 W/m 12,9 km/h (3 Bft) 97,87 %
13.01.2019 15:02 8,4 C 7,8 C 7,2 C 99 % 1001,3 hPa 0,0 l/m 0 min 0 min 16 W/m 12,9 km/h (3 Bft) 93,62 %
13.01.2019 15:04 8,4 C 7,8 C 7,2 C 99 % 1001,2 hPa 0,0 l/m 0 min 0 min 15 W/m 16,1 km/h (3 Bft) 97,87 %
13.01.2019 15:06 8,4 C 7,8 C 7,2 C 99 % 1001,2 hPa 0,0 l/m 0 min 0 min 13 W/m 19,3 km/h (3 Bft) 98,28 %
13.01.2019 15:08 8,4 C 7,8 C 7,2 C 99 % 1001,2 hPa 0,0 l/m 0 min 0 min 14 W/m 22,5 km/h (4 Bft) 97,14 %
13.01.2019 15:10 8,4 C 7,8 C 7,2 C 99 % 1001,2 hPa 0,0 l/m 0 min 0 min 12 W/m 16,1 km/h (3 Bft) 95,74 %
13.01.2019 15:12 8,4 C 7,8 C 7,2 C 99 % 1001,3 hPa 0,0 l/m 0 min 0 min 12 W/m 16,1 km/h (3 Bft) 95,74 %
13.01.2019 15:14 8,4 C 7,8 C 7,2 C 99 % 1001,3 hPa 0,0 l/m 0 min 0 min 11 W/m 22,5 km/h (4 Bft) 97,87 %
13.01.2019 15:16 8,4 C 7,8 C 7,2 C 99 % 1001,3 hPa 0,0 l/m 0 min 0 min 11 W/m 12,9 km/h (3 Bft) 97,87 %
13.01.2019 15:18 8,4 C 7,8 C 7,2 C 99 % 1001,3 hPa 0,0 l/m 0 min 0 min 12 W/m 16,1 km/h (3 Bft) 97,83 %
13.01.2019 15:20 8,4 C 7,8 C 7,2 C 99 % 1001,1 hPa 0,0 l/m 0 min 0 min 13 W/m 19,3 km/h (3 Bft) 95,74 %
13.01.2019 15:22 8,4 C 7,8 C 7,2 C 99 % 1001,1 hPa 0,2 l/m 0 min 0 min 14 W/m 22,5 km/h (4 Bft) 95,74 %
13.01.2019 15:24 8,4 C 7,8 C 7,2 C 99 % 1001,2 hPa 0,0 l/m 0 min 0 min 15 W/m 25,7 km/h (4 Bft) 95,74 %
13.01.2019 15:26 8,4 C 7,8 C 7,2 C 99 % 1001,0 hPa 0,0 l/m 0 min 0 min 18 W/m 22,5 km/h (4 Bft) 97,87 %
13.01.2019 15:28 8,4 C 7,8 C 7,2 C 99 % 1001,2 hPa 0,0 l/m 0 min 0 min 18 W/m 19,3 km/h (3 Bft) 97,87 %
13.01.2019 15:30 8,4 C 7,8 C 7,2 C 99 % 1001,2 hPa 0,0 l/m 0 min 0 min 16 W/m 41,8 km/h (6 Bft) 95,65 %
13.01.2019 15:32 8,3 C 7,8 C 7,2 C 99 % 1001,2 hPa 0,0 l/m 0 min 0 min 15 W/m 22,5 km/h (4 Bft) 91,49 %
13.01.2019 15:34 8,3 C 7,8 C 7,2 C 99 % 1001,1 hPa 0,0 l/m 0 min 0 min 18 W/m 25,7 km/h (4 Bft) 97,87 %
13.01.2019 15:36 8,4 C 7,8 C 7,2 C 99 % 1000,9 hPa 0,0 l/m 0 min 2 min 18 W/m 25,7 km/h (4 Bft) 98,31 %
13.01.2019 15:38 8,4 C 7,8 C 7,2 C 99 % 1001,0 hPa 0,2 l/m 0 min 2 min 17 W/m 29,0 km/h (5 Bft) 95,65 %
13.01.2019 15:40 8,3 C 7,8 C 7,2 C 99 % 1000,9 hPa 0,0 l/m 0 min 2 min 17 W/m 25,7 km/h (4 Bft) 97,22 %
13.01.2019 15:42 8,3 C 7,8 C 7,2 C 99 % 1000,8 hPa 0,0 l/m 0 min 0 min 19 W/m 19,3 km/h (3 Bft) 93,48 %
13.01.2019 15:44 8,3 C 7,8 C 7,2 C 99 % 1001,0 hPa 0,0 l/m 0 min 2 min 16 W/m 16,1 km/h (3 Bft) 97,87 %
13.01.2019 15:46 8,3 C 7,8 C 7,2 C 99 % 1001,0 hPa 0,0 l/m 0 min 2 min 13 W/m 22,5 km/h (4 Bft) 97,87 %
13.01.2019 15:48 8,3 C 7,8 C 7,2 C 99 % 1000,9 hPa 0,0 l/m 0 min 0 min 11 W/m 22,5 km/h (4 Bft) 97,87 %
13.01.2019 15:50 8,3 C 7,8 C 7,2 C 99 % 1000,7 hPa 0,0 l/m 0 min 2 min 11 W/m 19,3 km/h (3 Bft) 97,87 %
13.01.2019 15:52 8,3 C 7,8 C 7,2 C 99 % 1000,9 hPa 0,0 l/m 0 min 2 min 8 W/m 22,5 km/h (4 Bft) 97,87 %
13.01.2019 15:54 8,3 C 7,8 C 7,2 C 99 % 1000,8 hPa 0,0 l/m 0 min 0 min 7 W/m 22,5 km/h (4 Bft) 97,83 %
13.01.2019 15:56 8,3 C 7,8 C 7,2 C 99 % 1000,8 hPa 0,0 l/m 0 min 0 min 6 W/m 29,0 km/h (5 Bft) 95,74 %
13.01.2019 15:58 8,3 C 7,8 C 7,2 C 99 % 1000,8 hPa 0,0 l/m 0 min 2 min 5 W/m 25,7 km/h (4 Bft) 97,87 %
13.01.2019 16:00 8,3 C 7,8 C 7,2 C 99 % 1000,9 hPa 0,0 l/m 0 min 2 min 5 W/m 25,7 km/h (4 Bft) 95,74 %
13.01.2019 16:02 8,3 C 7,8 C 7,2 C 99 % 1000,7 hPa 0,0 l/m 0 min 2 min 7 W/m 19,3 km/h (3 Bft) 93,62 %
13.01.2019 16:04 8,3 C 7,8 C 7,2 C 99 % 1000,7 hPa 0,0 l/m 0 min 2 min 5 W/m 22,5 km/h (4 Bft) 95,74 %
13.01.2019 16:06 8,3 C 7,8 C 7,2 C 99 % 1000,6 hPa 0,0 l/m 0 min 2 min 5 W/m 25,7 km/h (4 Bft) 98,28 %
13.01.2019 16:08 8,3 C 7,8 C 7,2 C 99 % 1000,6 hPa 0,2 l/m 0 min 2 min 5 W/m 38,6 km/h (5 Bft) 97,87 %
13.01.2019 16:10 8,3 C 7,8 C 7,2 C 99 % 1000,7 hPa 0,0 l/m 0 min 0 min 0 W/m 25,7 km/h (4 Bft) 94,29 %
13.01.2019 16:12 8,3 C 7,8 C 7,2 C 99 % 1000,7 hPa 0,0 l/m 0 min 0 min 1 W/m 22,5 km/h (4 Bft) 97,87 %
13.01.2019 16:14 8,3 C 7,8 C 7,2 C 99 % 1000,7 hPa 0,0 l/m 0 min 0 min 1 W/m 22,5 km/h (4 Bft) 97,87 %
13.01.2019 16:16 8,3 C 7,8 C 7,2 C 99 % 1000,7 hPa 0,0 l/m 0 min 0 min 0 W/m 29,0 km/h (5 Bft) 97,87 %
13.01.2019 16:18 8,3 C 7,8 C 7,2 C 99 % 1000,9 hPa 0,0 l/m 0 min 0 min 0 W/m 25,7 km/h (4 Bft) 97,83 %
13.01.2019 16:20 8,3 C 7,8 C 7,2 C 99 % 1000,9 hPa 0,0 l/m 0 min 0 min 0 W/m 32,2 km/h (5 Bft) 97,87 %
13.01.2019 16:22 8,3 C 7,8 C 7,2 C 99 % 1000,8 hPa 0,0 l/m 0 min 0 min 0 W/m 25,7 km/h (4 Bft) 97,87 %
13.01.2019 16:24 8,3 C 7,8 C 7,2 C 99 % 1001,0 hPa 0,0 l/m 0 min 0 min 0 W/m 25,7 km/h (4 Bft) 97,87 %
13.01.2019 16:26 8,3 C 7,8 C 7,2 C 99 % 1000,9 hPa 0,0 l/m 0 min 0 min 0 W/m 22,5 km/h (4 Bft) 100,00 %
13.01.2019 16:28 8,3 C 7,8 C 7,2 C 99 % 1000,7 hPa 0,0 l/m 0 min 0 min 2 W/m 29,0 km/h (5 Bft) 97,87 %
13.01.2019 16:30 8,3 C 7,8 C 7,2 C 99 % 1000,8 hPa 0,0 l/m 0 min 0 min 0 W/m 16,1 km/h (3 Bft) 97,83 %
13.01.2019 16:32 8,3 C 7,8 C 7,2 C 99 % 1000,7 hPa 0,0 l/m 0 min 0 min 0 W/m 19,3 km/h (3 Bft) 95,74 %
13.01.2019 16:34 8,3 C 7,8 C 7,2 C 99 % 1000,9 hPa 0,0 l/m 0 min 0 min 0 W/m 19,3 km/h (3 Bft) 95,74 %
13.01.2019 16:36 8,3 C 7,8 C 7,2 C 99 % 1000,8 hPa 0,0 l/m 0 min 2 min 0 W/m 22,5 km/h (4 Bft) 98,31 %
13.01.2019 16:38 8,3 C 7,8 C 7,2 C 99 % 1000,8 hPa 0,0 l/m 0 min 0 min 0 W/m 48,3 km/h (6 Bft) 97,14 %
13.01.2019 16:40 8,3 C 7,8 C 7,2 C 99 % 1000,9 hPa 0,0 l/m 0 min 0 min 0 W/m 19,3 km/h (3 Bft) 97,83 %
13.01.2019 16:42 8,3 C 7,8 C 7,2 C 99 % 1000,8 hPa 0,0 l/m 0 min 0 min 0 W/m 19,3 km/h (3 Bft) 97,87 %
13.01.2019 16:44 8,3 C 7,8 C 7,2 C 100 % 1000,9 hPa 0,0 l/m 0 min 0 min 0 W/m 19,3 km/h (3 Bft) 97,87 %
13.01.2019 16:46 8,3 C 7,8 C 7,2 C 100 % 1000,9 hPa 0,0 l/m 0 min 0 min 0 W/m 25,7 km/h (4 Bft) 95,74 %
13.01.2019 16:48 8,3 C 7,8 C 7,2 C 100 % 1000,9 hPa 0,0 l/m 0 min 0 min 0 W/m 32,2 km/h (5 Bft) 97,87 %
13.01.2019 16:50 8,3 C 7,8 C 7,2 C 100 % 1000,9 hPa 0,0 l/m 0 min 0 min 0 W/m 22,5 km/h (4 Bft) 97,87 %
13.01.2019 16:52 8,3 C 7,8 C 7,2 C 99 % 1000,8 hPa 0,0 l/m 0 min 0 min 0 W/m 19,3 km/h (3 Bft) 97,83 %
13.01.2019 16:54 8,3 C 7,8 C 7,2 C 100 % 1000,9 hPa 0,0 l/m 0 min 0 min 0 W/m 32,2 km/h (5 Bft) 97,87 %
13.01.2019 16:56 8,3 C 7,8 C 7,2 C 100 % 1000,9 hPa 0,0 l/m 0 min 0 min 0 W/m 25,7 km/h (4 Bft) 97,87 %
13.01.2019 16:58 8,3 C 7,8 C 7,2 C 99 % 1000,9 hPa 0,0 l/m 0 min 2 min 0 W/m 29,0 km/h (5 Bft) 97,87 %
13.01.2019 17:00 8,3 C 7,8 C 7,2 C 99 % 1000,8 hPa 0,0 l/m 0 min 0 min 0 W/m 25,7 km/h (4 Bft) 95,74 %
13.01.2019 17:02 8,3 C 7,8 C 7,2 C 99 % 1000,8 hPa 0,0 l/m 0 min 0 min 0 W/m 25,7 km/h (4 Bft) 97,87 %
13.01.2019 17:04 8,3 C 7,8 C 7,2 C 99 % 1000,8 hPa 0,0 l/m 0 min 0 min 0 W/m 29,0 km/h (5 Bft) 95,65 %
13.01.2019 17:06 8,3 C 7,8 C 7,2 C 99 % 1000,8 hPa 0,0 l/m 0 min 2 min 0 W/m 25,7 km/h (4 Bft) 98,31 %
13.01.2019 17:08 8,3 C 7,8 C 7,2 C 99 % 1000,8 hPa 0,0 l/m 0 min 2 min 0 W/m 25,7 km/h (4 Bft) 97,87 %
13.01.2019 17:10 8,3 C 7,8 C 7,2 C 99 % 1000,8 hPa 0,0 l/m 0 min 0 min 0 W/m 22,5 km/h (4 Bft) 97,14 %
13.01.2019 17:12 8,3 C 7,8 C 7,2 C 99 % 1000,8 hPa 0,0 l/m 0 min 0 min 0 W/m 32,2 km/h (5 Bft) 100,00 %
13.01.2019 17:14 8,3 C 7,8 C 7,2 C 99 % 1000,8 hPa 0,0 l/m 0 min 0 min 0 W/m 22,5 km/h (4 Bft) 100,00 %
13.01.2019 17:16 8,3 C 7,8 C 7,2 C 99 % 1000,8 hPa 0,0 l/m 0 min 0 min 0 W/m 22,5 km/h (4 Bft) 100,00 %
13.01.2019 17:18 8,3 C 7,8 C 7,2 C 99 % 1000,8 hPa 0,0 l/m 0 min 0 min 0 W/m 29,0 km/h (5 Bft) 100,00 %
13.01.2019 17:20 8,3 C 7,8 C 7,2 C 99 % 1000,7 hPa 0,0 l/m 0 min 0 min 0 W/m 29,0 km/h (5 Bft) 97,87 %
13.01.2019 17:22 8,3 C 7,8 C 7,2 C 99 % 1000,5 hPa 0,0 l/m 0 min 0 min 0 W/m 22,5 km/h (4 Bft) 100,00 %
13.01.2019 17:24 8,3 C 7,8 C 7,2 C 99 % 1000,5 hPa 0,0 l/m 0 min 0 min 0 W/m 22,5 km/h (4 Bft) 97,87 %
13.01.2019 17:26 8,3 C 7,8 C 7,2 C 99 % 1000,5 hPa 0,0 l/m 0 min 0 min 0 W/m 22,5 km/h (4 Bft) 97,87 %
13.01.2019 17:28 8,3 C 7,8 C 7,2 C 99 % 1000,4 hPa 0,0 l/m 0 min 0 min 0 W/m 25,7 km/h (4 Bft) 100,00 %
13.01.2019 17:30 8,3 C 7,8 C 7,2 C 99 % 1000,4 hPa 0,0 l/m 0 min 0 min 0 W/m 32,2 km/h (5 Bft) 100,00 %
13.01.2019 17:32 8,3 C 7,8 C 7,2 C 99 % 1000,4 hPa 0,0 l/m 0 min 0 min 0 W/m 16,1 km/h (3 Bft) 100,00 %
13.01.2019 17:34 8,3 C 7,8 C 7,2 C 99 % 1000,5 hPa 0,0 l/m 0 min 0 min 0 W/m 16,1 km/h (3 Bft) 100,00 %
13.01.2019 17:36 8,3 C 7,8 C 7,2 C 99 % 1000,5 hPa 0,0 l/m 0 min 0 min 0 W/m 25,7 km/h (4 Bft) 100,00 %
13.01.2019 17:38 8,3 C 7,8 C 7,2 C 99 % 1000,5 hPa 0,0 l/m 0 min 0 min 0 W/m 22,5 km/h (4 Bft) 100,00 %
13.01.2019 17:40 8,3 C 7,8 C 7,2 C 99 % 1000,5 hPa 0,0 l/m 0 min 2 min 0 W/m 22,5 km/h (4 Bft) 100,00 %
13.01.2019 17:42 8,3 C 7,8 C 7,2 C 99 % 1000,5 hPa 0,0 l/m 0 min 0 min 0 W/m 19,3 km/h (3 Bft) 97,87 %
13.01.2019 17:44 8,3 C 7,8 C 7,2 C 99 % 1000,4 hPa 0,0 l/m 0 min 0 min 0 W/m 22,5 km/h (4 Bft) 97,87 %
13.01.2019 17:46 8,3 C 7,8 C 7,2 C 99 % 1000,4 hPa 0,0 l/m 0 min 0 min 0 W/m 35,4 km/h (5 Bft) 97,87 %
13.01.2019 17:48 8,3 C 7,8 C 7,2 C 99 % 1000,4 hPa 0,0 l/m 0 min 2 min 0 W/m 22,5 km/h (4 Bft) 97,87 %
13.01.2019 17:50 8,3 C 7,8 C 7,2 C 99 % 1000,4 hPa 0,0 l/m 0 min 0 min 0 W/m 25,7 km/h (4 Bft) 97,83 %
13.01.2019 17:52 8,3 C 7,8 C 7,2 C 99 % 1000,3 hPa 0,0 l/m 0 min 0 min 0 W/m 16,1 km/h (3 Bft) 95,74 %
13.01.2019 17:54 8,3 C 7,8 C 7,2 C 99 % 1000,3 hPa 0,0 l/m 0 min 0 min 0 W/m 25,7 km/h (4 Bft) 97,87 %
13.01.2019 17:56 8,3 C 7,8 C 7,2 C 99 % 1000,2 hPa 0,0 l/m 0 min 0 min 0 W/m 25,7 km/h (4 Bft) 97,87 %
13.01.2019 17:58 8,3 C 7,8 C 7,2 C 99 % 1000,2 hPa 0,0 l/m 0 min 0 min 0 W/m 22,5 km/h (4 Bft) 97,87 %
13.01.2019 18:00 8,3 C 7,8 C 7,2 C 99 % 1000,1 hPa 0,0 l/m 0 min 0 min 0 W/m 16,1 km/h (3 Bft) 97,87 %
13.01.2019 18:02 8,3 C 7,8 C 7,2 C 99 % 1000,1 hPa 0,0 l/m 0 min 0 min 0 W/m 25,7 km/h (4 Bft) 97,83 %
13.01.2019 18:04 8,3 C 7,8 C 7,2 C 99 % 1000,1 hPa 0,0 l/m 0 min 0 min 0 W/m 22,5 km/h (4 Bft) 97,87 %
13.01.2019 18:08 8,3 C 7,8 C 7,2 C 99 % 999,9 hPa 0,0 l/m 0 min 0 min 0 W/m 25,7 km/h (4 Bft) 97,87 %
13.01.2019 18:10 8,3 C 7,8 C 7,2 C 99 % 1000,0 hPa 0,0 l/m 0 min 0 min 0 W/m 32,2 km/h (5 Bft) 97,87 %
13.01.2019 18:12 8,3 C 7,8 C 7,2 C 99 % 1000,0 hPa 0,0 l/m 0 min 0 min 0 W/m 25,7 km/h (4 Bft) 97,87 %
13.01.2019 18:14 8,3 C 7,8 C 7,2 C 99 % 1000,0 hPa 0,0 l/m 0 min 0 min 0 W/m 19,3 km/h (3 Bft) 95,65 %
13.01.2019 18:16 8,3 C 7,8 C 7,2 C 99 % 1000,0 hPa 0,0 l/m 0 min 2 min 0 W/m 19,3 km/h (3 Bft) 93,62 %
13.01.2019 18:18 8,3 C 7,2 C 7,2 C 99 % 1000,0 hPa 0,0 l/m 0 min 2 min 0 W/m 16,1 km/h (3 Bft) 97,87 %
13.01.2019 18:20 8,3 C 7,2 C 7,2 C 99 % 1000,0 hPa 0,0 l/m 0 min 0 min 0 W/m 19,3 km/h (3 Bft) 97,87 %
13.01.2019 18:22 8,3 C 7,8 C 7,2 C 99 % 1000,0 hPa 0,0 l/m 0 min 2 min 0 W/m 29,0 km/h (5 Bft) 97,87 %
13.01.2019 18:24 8,3 C 7,8 C 6,7 C 99 % 1000,1 hPa 0,0 l/m 0 min 2 min 0 W/m 25,7 km/h (4 Bft) 95,74 %
13.01.2019 18:26 8,3 C 7,2 C 6,7 C 99 % 1000,1 hPa 0,0 l/m 0 min 2 min 0 W/m 19,3 km/h (3 Bft) 95,65 %
13.01.2019 18:28 8,3 C 7,2 C 6,7 C 99 % 1000,0 hPa 0,0 l/m 0 min 2 min 0 W/m 22,5 km/h (4 Bft) 97,87 %
13.01.2019 18:30 8,3 C 7,2 C 6,7 C 99 % 1000,0 hPa 0,0 l/m 0 min 2 min 0 W/m 32,2 km/h (5 Bft) 95,74 %
13.01.2019 18:32 8,3 C 7,2 C 6,7 C 99 % 999,9 hPa 0,0 l/m 0 min 2 min 0 W/m 25,7 km/h (4 Bft) 97,87 %
13.01.2019 18:34 8,3 C 7,2 C 6,7 C 99 % 999,9 hPa 0,0 l/m 0 min 2 min 0 W/m 25,7 km/h (4 Bft) 95,74 %
13.01.2019 18:36 8,3 C 7,2 C 6,7 C 99 % 1000,1 hPa 0,0 l/m 0 min 2 min 0 W/m 19,3 km/h (3 Bft) 94,83 %
13.01.2019 18:38 8,3 C 7,2 C 6,7 C 99 % 999,9 hPa 0,2 l/m 0 min 2 min 0 W/m 29,0 km/h (5 Bft) 97,14 %
13.01.2019 18:40 8,2 C 7,2 C 6,7 C 99 % 999,9 hPa 0,0 l/m 0 min 2 min 0 W/m 22,5 km/h (4 Bft) 97,87 %
13.01.2019 18:42 8,2 C 7,2 C 6,7 C 99 % 1000,0 hPa 0,0 l/m 0 min 2 min 0 W/m 19,3 km/h (3 Bft) 95,74 %
13.01.2019 18:44 8,2 C 7,2 C 6,7 C 99 % 999,8 hPa 0,0 l/m 0 min 2 min 0 W/m 41,8 km/h (6 Bft) 97,87 %
13.01.2019 18:46 8,2 C 7,2 C 6,7 C 98 % 999,9 hPa 0,0 l/m 0 min 2 min 0 W/m 32,2 km/h (5 Bft) 95,74 %
13.01.2019 18:48 8,1 C 7,2 C 6,7 C 98 % 1000,0 hPa 0,0 l/m 0 min 2 min 0 W/m 19,3 km/h (3 Bft) 95,65 %
13.01.2019 18:50 8,1 C 7,2 C 6,7 C 98 % 999,8 hPa 0,0 l/m 0 min 2 min 0 W/m 32,2 km/h (5 Bft) 97,87 %
13.01.2019 18:52 8,1 C 7,2 C 6,7 C 98 % 999,8 hPa 0,0 l/m 0 min 2 min 0 W/m 29,0 km/h (5 Bft) 97,87 %
13.01.2019 18:54 8,1 C 7,2 C 6,7 C 98 % 999,9 hPa 0,0 l/m 0 min 2 min 0 W/m 29,0 km/h (5 Bft) 97,87 %
13.01.2019 18:56 8,1 C 7,2 C 6,7 C 98 % 999,8 hPa 0,0 l/m 0 min 2 min 0 W/m 32,2 km/h (5 Bft) 95,74 %
13.01.2019 18:58 8,1 C 7,2 C 6,7 C 98 % 999,8 hPa 0,0 l/m 0 min 2 min 0 W/m 29,0 km/h (5 Bft) 95,74 %
13.01.2019 19:00 8,1 C 7,2 C 6,7 C 98 % 999,7 hPa 0,0 l/m 0 min 2 min 0 W/m 35,4 km/h (5 Bft) 95,74 %
13.01.2019 19:02 8,0 C 6,7 C 6,7 C 98 % 999,6 hPa 0,0 l/m 0 min 2 min 0 W/m 22,5 km/h (4 Bft) 93,48 %
13.01.2019 19:04 7,9 C 6,7 C 6,7 C 98 % 999,7 hPa 0,0 l/m 0 min 2 min 0 W/m 29,0 km/h (5 Bft) 95,74 %
13.01.2019 19:06 7,9 C 7,2 C 6,7 C 98 % 999,7 hPa 0,0 l/m 0 min 2 min 0 W/m 25,7 km/h (4 Bft) 94,92 %
13.01.2019 19:08 7,9 C 7,2 C 6,7 C 98 % 999,7 hPa 0,0 l/m 0 min 0 min 0 W/m 22,5 km/h (4 Bft) 95,65 %
13.01.2019 19:10 7,9 C 7,2 C 6,7 C 98 % 999,7 hPa 0,0 l/m 0 min 0 min 0 W/m 19,3 km/h (3 Bft) 94,44 %
13.01.2019 19:12 7,9 C 7,2 C 6,7 C 98 % 999,7 hPa 0,0 l/m 0 min 0 min 0 W/m 25,7 km/h (4 Bft) 95,65 %
13.01.2019 19:14 7,9 C 7,2 C 6,1 C 98 % 999,7 hPa 0,0 l/m 0 min 0 min 0 W/m 19,3 km/h (3 Bft) 95,74 %
13.01.2019 19:16 7,9 C 7,2 C 6,7 C 98 % 999,8 hPa 0,0 l/m 0 min 0 min 0 W/m 19,3 km/h (3 Bft) 95,74 %
13.01.2019 19:18 8,0 C 7,2 C 6,7 C 97 % 999,7 hPa 0,0 l/m 0 min 0 min 0 W/m 29,0 km/h (5 Bft) 91,49 %
13.01.2019 19:20 8,0 C 7,2 C 6,7 C 97 % 999,8 hPa 0,0 l/m 0 min 2 min 0 W/m 32,2 km/h (5 Bft) 95,74 %
13.01.2019 19:22 8,1 C 7,2 C 6,7 C 98 % 999,8 hPa 0,0 l/m 0 min 2 min 0 W/m 29,0 km/h (5 Bft) 95,74 %
13.01.2019 19:24 8,1 C 7,2 C 6,7 C 97 % 999,8 hPa 0,0 l/m 0 min 2 min 0 W/m 22,5 km/h (4 Bft) 95,74 %
13.01.2019 19:26 8,1 C 7,2 C 6,7 C 97 % 999,7 hPa 0,0 l/m 0 min 2 min 0 W/m 32,2 km/h (5 Bft) 97,83 %
13.01.2019 19:28 8,1 C 7,2 C 6,7 C 97 % 999,9 hPa 0,0 l/m 0 min 2 min 0 W/m 29,0 km/h (5 Bft) 97,87 %
13.01.2019 19:30 8,2 C 7,2 C 6,7 C 97 % 999,9 hPa 0,0 l/m 0 min 2 min 0 W/m 25,7 km/h (4 Bft) 97,87 %
13.01.2019 19:32 8,2 C 7,2 C 6,7 C 97 % 999,9 hPa 0,0 l/m 0 min 0 min 0 W/m 25,7 km/h (4 Bft) 97,87 %
13.01.2019 19:34 8,2 C 7,2 C 6,7 C 97 % 999,9 hPa 0,0 l/m 0 min 0 min 0 W/m 22,5 km/h (4 Bft) 97,87 %
13.01.2019 19:36 8,2 C 7,2 C 6,7 C 97 % 1000,1 hPa 0,0 l/m 0 min 0 min 0 W/m 22,5 km/h (4 Bft) 94,83 %
13.01.2019 19:38 8,2 C 7,2 C 6,7 C 97 % 1000,0 hPa 0,0 l/m 0 min 2 min 0 W/m 25,7 km/h (4 Bft) 97,87 %
13.01.2019 19:40 8,3 C 7,2 C 6,7 C 97 % 1000,0 hPa 0,0 l/m 0 min 2 min 0 W/m 29,0 km/h (5 Bft) 97,14 %
13.01.2019 19:42 8,3 C 7,2 C 6,7 C 97 % 999,9 hPa 0,0 l/m 0 min 2 min 0 W/m 19,3 km/h (3 Bft) 100,00 %
13.01.2019 19:44 8,3 C 7,2 C 6,7 C 97 % 999,8 hPa 0,0 l/m 0 min 2 min 0 W/m 29,0 km/h (5 Bft) 100,00 %
13.01.2019 19:46 8,3 C 7,2 C 6,7 C 97 % 999,8 hPa 0,0 l/m 0 min 2 min 0 W/m 29,0 km/h (5 Bft) 100,00 %
13.01.2019 19:48 8,3 C 7,2 C 6,7 C 97 % 999,8 hPa 0,0 l/m 0 min 2 min 0 W/m 25,7 km/h (4 Bft) 100,00 %
13.01.2019 19:50 8,3 C 7,2 C 6,7 C 97 % 999,8 hPa 0,0 l/m 0 min 2 min 0 W/m 32,2 km/h (5 Bft) 97,87 %
13.01.2019 19:52 8,3 C 7,2 C 6,7 C 97 % 999,9 hPa 0,0 l/m 0 min 2 min 0 W/m 32,2 km/h (5 Bft) 97,87 %
13.01.2019 19:54 8,3 C 7,2 C 6,7 C 96 % 1000,1 hPa 0,0 l/m 0 min 2 min 0 W/m 45,1 km/h (6 Bft) 100,00 %
13.01.2019 19:56 8,3 C 7,2 C 6,7 C 96 % 1000,4 hPa 0,0 l/m 0 min 2 min 0 W/m 38,6 km/h (5 Bft) 100,00 %
13.01.2019 19:58 8,4 C 7,2 C 6,7 C 96 % 1000,5 hPa 0,0 l/m 0 min 2 min 0 W/m 35,4 km/h (5 Bft) 97,83 %
13.01.2019 20:00 8,3 C 7,2 C 6,7 C 96 % 1000,4 hPa 0,0 l/m 0 min 2 min 0 W/m 32,2 km/h (5 Bft) 100,00 %
13.01.2019 20:02 8,3 C 7,2 C 6,7 C 96 % 1000,5 hPa 0,0 l/m 0 min 2 min 0 W/m 19,3 km/h (3 Bft) 100,00 %
13.01.2019 20:04 8,3 C 6,7 C 6,1 C 96 % 1000,6 hPa 0,0 l/m 0 min 2 min 0 W/m 32,2 km/h (5 Bft) 97,87 %
13.01.2019 20:06 8,2 C 6,7 C 6,1 C 95 % 1000,9 hPa 0,0 l/m 0 min 2 min 0 W/m 38,6 km/h (5 Bft) 94,92 %
13.01.2019 20:08 8,1 C 6,1 C 5,6 C 95 % 1000,9 hPa 0,0 l/m 0 min 2 min 0 W/m 41,8 km/h (6 Bft) 100,00 %
13.01.2019 20:10 7,9 C 5,6 C 5,6 C 95 % 1001,3 hPa 0,4 l/m 0 min 2 min 0 W/m 54,7 km/h (7 Bft) 100,00 %
13.01.2019 20:12 7,6 C 5,6 C 5,0 C 94 % 1001,2 hPa 0,6 l/m 0 min 2 min 0 W/m 51,5 km/h (7 Bft) 97,87 %
13.01.2019 20:14 7,3 C 5,6 C 5,0 C 94 % 1001,0 hPa 0,0 l/m 0 min 2 min 0 W/m 35,4 km/h (5 Bft) 100,00 %
13.01.2019 20:16 7,2 C 5,6 C 5,0 C 94 % 1001,0 hPa 0,0 l/m 0 min 2 min 0 W/m 35,4 km/h (5 Bft) 100,00 %
13.01.2019 20:18 7,1 C 5,6 C 5,0 C 94 % 1001,1 hPa 0,0 l/m 0 min 2 min 0 W/m 38,6 km/h (5 Bft) 100,00 %
13.01.2019 20:20 7,0 C 5,6 C 5,0 C 94 % 1000,8 hPa 0,2 l/m 0 min 2 min 0 W/m 38,6 km/h (5 Bft) 100,00 %
13.01.2019 20:22 6,9 C 5,6 C 5,0 C 94 % 1000,9 hPa 0,0 l/m 0 min 2 min 0 W/m 51,5 km/h (7 Bft) 100,00 %
13.01.2019 20:24 6,8 C 5,6 C 5,0 C 95 % 1000,9 hPa 0,0 l/m 0 min 2 min 0 W/m 25,7 km/h (4 Bft) 97,87 %
13.01.2019 20:26 6,8 C 5,6 C 5,0 C 95 % 1000,6 hPa 0,0 l/m 0 min 2 min 0 W/m 32,2 km/h (5 Bft) 100,00 %
13.01.2019 20:28 6,7 C 5,6 C 5,0 C 95 % 1000,5 hPa 0,0 l/m 0 min 2 min 0 W/m 32,2 km/h (5 Bft) 100,00 %
13.01.2019 20:30 6,7 C 5,6 C 5,0 C 95 % 1000,5 hPa 0,0 l/m 0 min 2 min 0 W/m 35,4 km/h (5 Bft) 100,00 %
13.01.2019 20:32 6,7 C 5,6 C 5,0 C 95 % 1000,5 hPa 0,0 l/m 0 min 0 min 0 W/m 32,2 km/h (5 Bft) 100,00 %
13.01.2019 20:34 6,7 C 5,6 C 5,0 C 95 % 1000,5 hPa 0,0 l/m 0 min 0 min 0 W/m 35,4 km/h (5 Bft) 97,83 %
13.01.2019 20:36 6,6 C 5,6 C 5,0 C 95 % 1000,7 hPa 0,0 l/m 0 min 0 min 0 W/m 25,7 km/h (4 Bft) 100,00 %
13.01.2019 20:38 6,6 C 5,6 C 5,0 C 95 % 1000,7 hPa 0,0 l/m 0 min 0 min 0 W/m 16,1 km/h (3 Bft) 100,00 %
13.01.2019 20:40 6,6 C 5,6 C 5,0 C 95 % 1000,7 hPa 0,0 l/m 0 min 0 min 0 W/m 22,5 km/h (4 Bft) 100,00 %
13.01.2019 20:42 6,6 C 5,6 C 5,0 C 95 % 1000,7 hPa 0,0 l/m 0 min 0 min 0 W/m 41,8 km/h (6 Bft) 100,00 %
13.01.2019 20:44 6,6 C 5,6 C 5,0 C 95 % 1000,7 hPa 0,0 l/m 0 min 0 min 0 W/m 22,5 km/h (4 Bft) 100,00 %
13.01.2019 20:46 6,6 C 5,6 C 5,0 C 95 % 1000,7 hPa 0,0 l/m 0 min 0 min 0 W/m 25,7 km/h (4 Bft) 100,00 %
13.01.2019 20:48 6,6 C 5,6 C 5,0 C 95 % 1000,7 hPa 0,0 l/m 0 min 0 min 0 W/m 25,7 km/h (4 Bft) 97,87 %
13.01.2019 20:50 6,6 C 5,6 C 5,0 C 95 % 1000,7 hPa 0,0 l/m 0 min 0 min 0 W/m 29,0 km/h (5 Bft) 100,00 %
13.01.2019 20:52 6,7 C 5,6 C 5,0 C 95 % 1000,7 hPa 0,0 l/m 0 min 0 min 0 W/m 32,2 km/h (5 Bft) 100,00 %
13.01.2019 20:54 6,7 C 5,6 C 5,0 C 95 % 1000,7 hPa 0,0 l/m 0 min 0 min 0 W/m 22,5 km/h (4 Bft) 100,00 %
13.01.2019 20:56 6,7 C 5,6 C 5,0 C 95 % 1000,7 hPa 0,0 l/m 0 min 0 min 0 W/m 32,2 km/h (5 Bft) 100,00 %
13.01.2019 20:58 6,8 C 5,6 C 5,0 C 95 % 1000,8 hPa 0,0 l/m 0 min 0 min 0 W/m 32,2 km/h (5 Bft) 97,83 %
13.01.2019 21:00 6,8 C 6,1 C 5,0 C 95 % 1000,8 hPa 0,0 l/m 0 min 0 min 0 W/m 29,0 km/h (5 Bft) 97,87 %
13.01.2019 21:02 6,8 C 6,1 C 5,0 C 95 % 1000,8 hPa 0,0 l/m 0 min 0 min 0 W/m 22,5 km/h (4 Bft) 93,62 %
13.01.2019 21:04 6,8 C 6,1 C 5,6 C 95 % 1001,0 hPa 0,0 l/m 0 min 0 min 0 W/m 25,7 km/h (4 Bft) 95,74 %
13.01.2019 21:06 6,8 C 6,1 C 5,6 C 95 % 1001,1 hPa 0,0 l/m 0 min 0 min 0 W/m 35,4 km/h (5 Bft) 94,83 %
13.01.2019 21:08 6,8 C 6,1 C 5,6 C 95 % 1001,1 hPa 0,0 l/m 0 min 0 min 0 W/m 29,0 km/h (5 Bft) 100,00 %
13.01.2019 21:10 6,9 C 6,1 C 5,6 C 95 % 1001,0 hPa 0,0 l/m 0 min 0 min 0 W/m 29,0 km/h (5 Bft) 93,62 %
13.01.2019 21:12 6,9 C 6,1 C 5,6 C 95 % 1001,1 hPa 0,0 l/m 0 min 0 min 0 W/m 29,0 km/h (5 Bft) 93,62 %
13.01.2019 21:14 6,9 C 6,1 C 5,0 C 95 % 1001,1 hPa 0,0 l/m 0 min 0 min 0 W/m 22,5 km/h (4 Bft) 97,87 %
13.01.2019 21:16 6,8 C 6,1 C 5,6 C 95 % 1001,1 hPa 0,0 l/m 0 min 0 min 0 W/m 32,2 km/h (5 Bft) 97,87 %
13.01.2019 21:18 6,8 C 6,1 C 5,0 C 95 % 1001,1 hPa 0,0 l/m 0 min 0 min 0 W/m 22,5 km/h (4 Bft) 95,74 %
13.01.2019 21:20 6,9 C 6,1 C 5,0 C 95 % 1001,1 hPa 0,0 l/m 0 min 0 min 0 W/m 22,5 km/h (4 Bft) 95,65 %
13.01.2019 21:22 6,9 C 6,1 C 5,0 C 95 % 1001,2 hPa 0,0 l/m 0 min 0 min 0 W/m 25,7 km/h (4 Bft) 93,62 %
13.01.2019 21:24 6,9 C 6,1 C 5,6 C 95 % 1001,2 hPa 0,0 l/m 0 min 0 min 0 W/m 25,7 km/h (4 Bft) 95,74 %
13.01.2019 21:26 6,9 C 6,1 C 5,6 C 95 % 1001,1 hPa 0,0 l/m 0 min 0 min 0 W/m 29,0 km/h (5 Bft) 95,74 %
13.01.2019 21:28 6,9 C 6,1 C 5,6 C 95 % 1001,0 hPa 0,0 l/m 0 min 0 min 0 W/m 25,7 km/h (4 Bft) 95,74 %
13.01.2019 21:30 6,9 C 6,1 C 5,6 C 96 % 1001,1 hPa 0,0 l/m 0 min 0 min 0 W/m 22,5 km/h (4 Bft) 95,74 %
13.01.2019 21:32 6,9 C 6,1 C 5,6 C 96 % 1001,2 hPa 0,0 l/m 0 min 0 min 0 W/m 25,7 km/h (4 Bft) 93,48 %
13.01.2019 21:34 6,9 C 6,1 C 5,6 C 96 % 1001,2 hPa 0,0 l/m 0 min 0 min 0 W/m 32,2 km/h (5 Bft) 91,49 %
13.01.2019 21:36 6,9 C 6,1 C 5,6 C 95 % 1001,2 hPa 0,0 l/m 0 min 0 min 0 W/m 29,0 km/h (5 Bft) 91,53 %
13.01.2019 21:38 6,9 C 6,1 C 5,6 C 96 % 1001,2 hPa 0,0 l/m 0 min 0 min 0 W/m 25,7 km/h (4 Bft) 94,29 %
13.01.2019 21:40 6,9 C 6,1 C 5,6 C 96 % 1001,1 hPa 0,0 l/m 0 min 0 min 0 W/m 25,7 km/h (4 Bft) 93,62 %
13.01.2019 21:42 7,0 C 6,1 C 5,6 C 96 % 1001,2 hPa 0,0 l/m 0 min 0 min 0 W/m 29,0 km/h (5 Bft) 89,36 %
13.01.2019 21:44 7,0 C 6,1 C 5,6 C 96 % 1001,2 hPa 0,0 l/m 0 min 0 min 0 W/m 32,2 km/h (5 Bft) 91,30 %
13.01.2019 21:46 7,0 C 6,7 C 5,6 C 95 % 1001,4 hPa 0,0 l/m 0 min 0 min 0 W/m 38,6 km/h (5 Bft) 93,62 %
13.01.2019 21:48 7,1 C 6,7 C 5,6 C 95 % 1001,3 hPa 0,0 l/m 0 min 0 min 0 W/m 29,0 km/h (5 Bft) 89,36 %
13.01.2019 21:50 7,1 C 6,7 C 5,6 C 95 % 1001,3 hPa 0,0 l/m 0 min 0 min 0 W/m 29,0 km/h (5 Bft) 91,49 %
13.01.2019 21:52 7,1 C 6,7 C 5,6 C 95 % 1001,4 hPa 0,0 l/m 0 min 0 min 0 W/m 25,7 km/h (4 Bft) 91,49 %
13.01.2019 21:54 7,1 C 6,7 C 5,6 C 95 % 1001,3 hPa 0,0 l/m 0 min 0 min 0 W/m 35,4 km/h (5 Bft) 95,74 %
13.01.2019 21:56 7,1 C 6,7 C 5,6 C 95 % 1001,3 hPa 0,0 l/m 0 min 0 min 0 W/m 22,5 km/h (4 Bft) 95,65 %
13.01.2019 21:58 7,1 C 6,7 C 5,6 C 95 % 1001,3 hPa 0,0 l/m 0 min 0 min 0 W/m 29,0 km/h (5 Bft) 93,62 %
13.01.2019 22:00 7,1 C 6,7 C 5,6 C 95 % 1001,3 hPa 0,0 l/m 0 min 0 min 0 W/m 32,2 km/h (5 Bft) 93,62 %
13.01.2019 22:02 7,1 C 6,7 C 5,6 C 95 % 1001,3 hPa 0,0 l/m 0 min 0 min 0 W/m 25,7 km/h (4 Bft) 93,62 %
13.01.2019 22:04 7,1 C 6,7 C 5,6 C 95 % 1001,3 hPa 0,0 l/m 0 min 0 min 0 W/m 32,2 km/h (5 Bft) 95,74 %
13.01.2019 22:06 7,1 C 6,7 C 5,6 C 95 % 1001,4 hPa 0,0 l/m 0 min 0 min 0 W/m 22,5 km/h (4 Bft) 96,55 %
13.01.2019 22:08 7,1 C 6,7 C 5,6 C 95 % 1001,3 hPa 0,0 l/m 0 min 0 min 0 W/m 25,7 km/h (4 Bft) 97,14 %
13.01.2019 22:10 7,1 C 6,7 C 5,6 C 95 % 1001,4 hPa 0,0 l/m 0 min 0 min 0 W/m 25,7 km/h (4 Bft) 95,74 %
13.01.2019 22:12 7,1 C 6,7 C 5,6 C 94 % 1001,4 hPa 0,0 l/m 0 min 0 min 0 W/m 22,5 km/h (4 Bft) 97,87 %
13.01.2019 22:14 7,1 C 6,7 C 5,6 C 94 % 1001,5 hPa 0,0 l/m 0 min 0 min 0 W/m 29,0 km/h (5 Bft) 97,87 %
13.01.2019 22:16 7,1 C 6,7 C 5,6 C 94 % 1001,5 hPa 0,0 l/m 0 min 0 min 0 W/m 35,4 km/h (5 Bft) 97,87 %
13.01.2019 22:18 7,1 C 6,1 C 5,0 C 94 % 1001,6 hPa 0,0 l/m 0 min 0 min 0 W/m 32,2 km/h (5 Bft) 100,00 %
13.01.2019 22:20 7,1 C 6,1 C 5,0 C 94 % 1001,6 hPa 0,0 l/m 0 min 0 min 0 W/m 25,7 km/h (4 Bft) 100,00 %
13.01.2019 22:22 7,1 C 6,1 C 5,0 C 94 % 1001,6 hPa 0,0 l/m 0 min 0 min 0 W/m 29,0 km/h (5 Bft) 97,87 %
13.01.2019 22:24 7,0 C 6,1 C 5,0 C 94 % 1001,6 hPa 0,0 l/m 0 min 0 min 0 W/m 22,5 km/h (4 Bft) 97,87 %
13.01.2019 22:26 7,0 C 6,1 C 5,0 C 94 % 1001,6 hPa 0,0 l/m 0 min 0 min 0 W/m 29,0 km/h (5 Bft) 100,00 %
13.01.2019 22:28 7,0 C 6,1 C 5,0 C 94 % 1001,7 hPa 0,0 l/m 0 min 0 min 0 W/m 22,5 km/h (4 Bft) 100,00 %
13.01.2019 22:30 7,0 C 6,1 C 5,0 C 94 % 1001,7 hPa 0,0 l/m 0 min 0 min 0 W/m 32,2 km/h (5 Bft) 100,00 %
13.01.2019 22:32 6,9 C 6,1 C 5,0 C 94 % 1001,7 hPa 0,0 l/m 0 min 0 min 0 W/m 45,1 km/h (6 Bft) 97,83 %
13.01.2019 22:34 6,9 C 6,1 C 5,0 C 94 % 1001,7 hPa 0,0 l/m 0 min 0 min 0 W/m 25,7 km/h (4 Bft) 100,00 %
13.01.2019 22:36 6,9 C 6,1 C 5,0 C 94 % 1001,7 hPa 0,0 l/m 0 min 0 min 0 W/m 25,7 km/h (4 Bft) 100,00 %
13.01.2019 22:38 6,9 C 6,1 C 5,0 C 94 % 1001,8 hPa 0,0 l/m 0 min 0 min 0 W/m 25,7 km/h (4 Bft) 100,00 %
13.01.2019 22:40 6,9 C 6,1 C 5,0 C 93 % 1001,8 hPa 0,0 l/m 0 min 0 min 0 W/m 38,6 km/h (5 Bft) 100,00 %
13.01.2019 22:42 6,9 C 6,1 C 5,0 C 93 % 1001,7 hPa 0,0 l/m 0 min 0 min 0 W/m 29,0 km/h (5 Bft) 100,00 %
13.01.2019 22:44 6,9 C 6,1 C 5,0 C 93 % 1001,8 hPa 0,0 l/m 0 min 0 min 0 W/m 25,7 km/h (4 Bft) 100,00 %
13.01.2019 22:46 6,8 C 6,1 C 5,0 C 93 % 1001,8 hPa 0,0 l/m 0 min 0 min 0 W/m 35,4 km/h (5 Bft) 100,00 %
13.01.2019 22:48 6,8 C 6,1 C 5,0 C 93 % 1002,0 hPa 0,0 l/m 0 min 0 min 0 W/m 25,7 km/h (4 Bft) 100,00 %
13.01.2019 22:50 6,8 C 6,1 C 5,0 C 93 % 1001,9 hPa 0,0 l/m 0 min 0 min 0 W/m 25,7 km/h (4 Bft) 100,00 %
13.01.2019 22:52 6,8 C 6,1 C 5,0 C 93 % 1001,9 hPa 0,0 l/m 0 min 0 min 0 W/m 25,7 km/h (4 Bft) 100,00 %
13.01.2019 22:54 6,8 C 6,1 C 5,0 C 93 % 1002,0 hPa 0,0 l/m 0 min 0 min 0 W/m 22,5 km/h (4 Bft) 100,00 %
13.01.2019 22:56 6,8 C 6,1 C 5,0 C 93 % 1001,9 hPa 0,0 l/m 0 min 0 min 0 W/m 19,3 km/h (3 Bft) 100,00 %
13.01.2019 22:58 6,8 C 6,1 C 5,0 C 93 % 1001,9 hPa 0,0 l/m 0 min 0 min 0 W/m 19,3 km/h (3 Bft) 100,00 %
13.01.2019 23:00 6,8 C 6,1 C 5,0 C 93 % 1001,9 hPa 0,0 l/m 0 min 0 min 0 W/m 16,1 km/h (3 Bft) 100,00 %
13.01.2019 23:02 6,7 C 6,1 C 5,0 C 93 % 1001,8 hPa 0,0 l/m 0 min 0 min 0 W/m 19,3 km/h (3 Bft) 97,87 %
13.01.2019 23:04 6,7 C 6,1 C 5,0 C 93 % 1002,0 hPa 0,0 l/m 0 min 0 min 0 W/m 16,1 km/h (3 Bft) 100,00 %
13.01.2019 23:06 6,7 C 6,1 C 5,0 C 93 % 1001,9 hPa 0,0 l/m 0 min 0 min 0 W/m 22,5 km/h (4 Bft) 100,00 %
13.01.2019 23:08 6,7 C 6,1 C 5,0 C 93 % 1002,0 hPa 0,0 l/m 0 min 0 min 0 W/m 19,3 km/h (3 Bft) 100,00 %
13.01.2019 23:10 6,7 C 6,1 C 5,0 C 93 % 1001,9 hPa 0,0 l/m 0 min 0 min 0 W/m 32,2 km/h (5 Bft) 100,00 %
13.01.2019 23:12 6,7 C 6,1 C 5,0 C 93 % 1002,0 hPa 0,0 l/m 0 min 0 min 0 W/m 19,3 km/h (3 Bft) 100,00 %
13.01.2019 23:14 6,7 C 6,1 C 5,0 C 93 % 1002,0 hPa 0,0 l/m 0 min 0 min 0 W/m 38,6 km/h (5 Bft) 100,00 %
13.01.2019 23:16 6,7 C 6,1 C 5,0 C 93 % 1002,0 hPa 0,0 l/m 0 min 0 min 0 W/m 19,3 km/h (3 Bft) 97,87 %
13.01.2019 23:18 6,7 C 6,1 C 5,0 C 93 % 1002,0 hPa 0,0 l/m 0 min 0 min 0 W/m 25,7 km/h (4 Bft) 100,00 %
13.01.2019 23:20 6,7 C 6,1 C 5,0 C 93 % 1002,1 hPa 0,0 l/m 0 min 0 min 0 W/m 19,3 km/h (3 Bft) 100,00 %
13.01.2019 23:22 6,7 C 6,1 C 5,0 C 93 % 1002,1 hPa 0,0 l/m 0 min 0 min 0 W/m 16,1 km/h (3 Bft) 100,00 %
13.01.2019 23:24 6,7 C 6,1 C 5,0 C 93 % 1002,0 hPa 0,0 l/m 0 min 0 min 0 W/m 19,3 km/h (3 Bft) 100,00 %
13.01.2019 23:26 6,7 C 6,1 C 5,0 C 93 % 1002,0 hPa 0,0 l/m 0 min 0 min 0 W/m 25,7 km/h (4 Bft) 100,00 %
13.01.2019 23:28 6,7 C 6,1 C 5,0 C 93 % 1002,1 hPa 0,0 l/m 0 min 2 min 0 W/m 38,6 km/h (5 Bft) 100,00 %
13.01.2019 23:30 6,7 C 6,1 C 5,0 C 93 % 1002,1 hPa 0,0 l/m 0 min 2 min 0 W/m 32,2 km/h (5 Bft) 100,00 %
13.01.2019 23:32 6,7 C 6,1 C 5,0 C 93 % 1002,1 hPa 0,0 l/m 0 min 2 min 0 W/m 29,0 km/h (5 Bft) 97,87 %
13.01.2019 23:34 6,7 C 5,6 C 5,0 C 93 % 1002,2 hPa 0,2 l/m 0 min 2 min 0 W/m 38,6 km/h (5 Bft) 100,00 %
13.01.2019 23:36 6,7 C 5,6 C 4,4 C 93 % 1002,3 hPa 0,2 l/m 0 min 2 min 0 W/m 32,2 km/h (5 Bft) 100,00 %
13.01.2019 23:38 6,7 C 5,6 C 4,4 C 93 % 1002,3 hPa 0,0 l/m 0 min 2 min 0 W/m 51,5 km/h (7 Bft) 97,87 %
13.01.2019 23:40 6,6 C 5,6 C 4,4 C 93 % 1002,3 hPa 0,0 l/m 0 min 2 min 0 W/m 38,6 km/h (5 Bft) 100,00 %
13.01.2019 23:42 6,5 C 5,0 C 4,4 C 93 % 1002,3 hPa 0,0 l/m 0 min 0 min 0 W/m 22,5 km/h (4 Bft) 100,00 %
13.01.2019 23:44 6,4 C 5,0 C 4,4 C 93 % 1002,3 hPa 0,0 l/m 0 min 0 min 0 W/m 22,5 km/h (4 Bft) 100,00 %
13.01.2019 23:46 6,4 C 5,0 C 3,9 C 93 % 1002,3 hPa 0,0 l/m 0 min 0 min 0 W/m 25,7 km/h (4 Bft) 97,87 %
13.01.2019 23:48 6,4 C 5,0 C 3,9 C 93 % 1002,3 hPa 0,0 l/m 0 min 0 min 0 W/m 22,5 km/h (4 Bft) 100,00 %
13.01.2019 23:50 6,3 C 5,0 C 4,4 C 93 % 1002,3 hPa 0,0 l/m 0 min 0 min 0 W/m 16,1 km/h (3 Bft) 97,87 %
13.01.2019 23:52 6,2 C 5,0 C 3,9 C 93 % 1002,3 hPa 0,0 l/m 0 min 0 min 0 W/m 16,1 km/h (3 Bft) 97,87 %
13.01.2019 23:54 6,2 C 5,0 C 4,4 C 93 % 1002,3 hPa 0,0 l/m 0 min 0 min 0 W/m 19,3 km/h (3 Bft) 95,65 %
13.01.2019 23:56 6,2 C 5,0 C 4,4 C 93 % 1002,2 hPa 0,0 l/m 0 min 0 min 0 W/m 12,9 km/h (3 Bft) 97,87 %
13.01.2019 23:58 6,2 C 5,0 C 4,4 C 93 % 1002,3 hPa 0,0 l/m 0 min 0 min 0 W/m 9,7 km/h (2 Bft) 97,87 %
_ Min-Zeit 23:52 23:42 23:46 22:40 19:02 - - - - 00:02 00:02
Minimum _ 6,2 C 5,0 C 3,9 C 93 % 999,6 hPa - - - - 3,2 km/h (1 Bft) 10,00 %
_ Max-Zeit 13:08 09:52 09:50 16:44 00:12 20:12 00:00 05:19 12:04 20:10 00:56
Maximum _ 8,4 C 7,8 C 7,2 C 100 % 1011,0 hPa 0,6 l/m 0 min 5 min 62 W/m 54,7 km/h
NW (7 Bft)
100,00 %
Durchschnitt _ 7,6 C 6,9 C 6,3 C 98 % 1004,5 hPa #7,4 l/m #0 min. #9:24 h 21 W/m 20,0 km/h (4 Bft) 97,41 %
© 2019 W. Hausmann